Observation data for Endee on 01/12/2018      Previous  Date  Next       Current Mesonet Observations  Soil Data  Daily Summary Page  Observations in Plain Language
KEN1 120600Z 16005KT M05/M09 A3023 RMK A01 T10461089  RH  072%=      5-min Rain = 0
KEN1 120601Z 17005KT M05/M09 A3023 RMK A01 T10461089  RH  072%=      5-min Rain = 0
KEN1 120602Z 16005KT M05/M09 A3023 RMK A01 T10461089  RH  072%=      5-min Rain = 0
KEN1 120603Z 16005KT M05/M09 A3023 RMK A01 T10461089  RH  072%=      5-min Rain = 0
KEN1 120604Z 16005KT M05/M09 A3023 RMK A01 T10461089  RH  072%=      5-min Rain = 0
KEN1 120605Z 16005KT M05/M09 A3023 RMK A01 T10461089  RH  072%=      5-min Rain = 0
KEN1 120606Z 16005KT M05/M09 A3023 RMK A01 T10461089  RH  072%=      5-min Rain = 0
KEN1 120607Z 16004KT M05/M09 A3023 RMK A01 T10461089  RH  072%=      5-min Rain = 0
KEN1 120608Z 17004KT M05/M09 A3024 RMK A01 T10451089  RH  071%=      5-min Rain = 0
KEN1 120609Z 16003KT M05/M09 A3024 RMK A01 T10451089  RH  071%=      5-min Rain = 0
KEN1 120610Z 16003KT M05/M09 A3024 RMK A01 T10451089  RH  071%=      5-min Rain = 0
KEN1 120611Z 16002KT M05/M09 A3024 RMK A01 T10451090  RH  071%=      5-min Rain = 0
KEN1 120612Z 15002KT M05/M09 A3024 RMK A01 T10451090  RH  071%=      5-min Rain = 0
KEN1 120613Z 16002KT M05/M09 A3024 RMK A01 T10461090  RH  071%=      5-min Rain = 0
KEN1 120614Z 16002KT M05/M09 A3024 RMK A01 T10461091  RH  071%=      5-min Rain = 0
KEN1 120615Z 17003KT M05/M09 A3024 RMK A01 T10461090  RH  071%=      5-min Rain = 0
KEN1 120616Z 17003KT M05/M09 A3024 RMK A01 T10451090  RH  071%=      5-min Rain = 0
KEN1 120617Z 17003KT M05/M09 A3024 RMK A01 T10451090  RH  071%=      5-min Rain = 0
KEN1 120618Z 16004KT M04/M09 A3023 RMK A01 T10441090  RH  070%=      5-min Rain = 0
KEN1 120619Z 16004KT M04/M09 A3023 RMK A01 T10431090  RH  070%=      5-min Rain = 0
KEN1 120620Z 16004KT M04/M09 A3023 RMK A01 T10421090  RH  070%=      5-min Rain = 0
KEN1 120621Z 16004KT M04/M09 A3024 RMK A01 T10421090  RH  069%=      5-min Rain = 0
KEN1 120622Z 16004KT M04/M09 A3024 RMK A01 T10421090  RH  069%=      5-min Rain = 0
KEN1 120623Z 17003KT M04/M09 A3024 RMK A01 T10421090  RH  069%=      5-min Rain = 0
KEN1 120624Z 17003KT M04/M09 A3024 RMK A01 T10431090  RH  069%=      5-min Rain = 0
KEN1 120625Z 17004KT M04/M09 A3024 RMK A01 T10431090  RH  069%=      5-min Rain = 0
KEN1 120626Z 17004KT M04/M09 A3023 RMK A01 T10431091  RH  069%=      5-min Rain = 0
KEN1 120627Z 17004KT M04/M09 A3023 RMK A01 T10431091  RH  069%=      5-min Rain = 0
KEN1 120628Z 17004KT M04/M09 A3023 RMK A01 T10421091  RH  069%=      5-min Rain = 0
KEN1 120629Z 18005KT M04/M09 A3023 RMK A01 T10431091  RH  069%=      5-min Rain = 0
KEN1 120630Z 18004KT M04/M09 A3023 RMK A01 T10441091  RH  070%=      5-min Rain = 0
KEN1 120631Z 18004KT M05/M09 A3023 RMK A01 T10451092  RH  070%=      5-min Rain = 0
KEN1 120632Z 18003KT M05/M09 A3023 RMK A01 T10471092  RH  071%=      5-min Rain = 0
KEN1 120633Z 18004KT M05/M09 A3023 RMK A01 T10491093  RH  071%=      5-min Rain = 0
KEN1 120634Z 18004KT M05/M09 A3023 RMK A01 T10491092  RH  072%=      5-min Rain = 0
KEN1 120635Z 18004KT M05/M09 A3023 RMK A01 T10491092  RH  072%=      5-min Rain = 0
KEN1 120636Z 17004KT M05/M09 A3023 RMK A01 T10491091  RH  073%=      5-min Rain = 0
KEN1 120637Z 18004KT M05/M09 A3023 RMK A01 T10491091  RH  072%=      5-min Rain = 0
KEN1 120638Z 18004KT M05/M09 A3023 RMK A01 T10491091  RH  072%=      5-min Rain = 0
KEN1 120639Z 18004KT M05/M09 A3023 RMK A01 T10491091  RH  073%=      5-min Rain = 0
KEN1 120640Z 18004KT M05/M09 A3023 RMK A01 T10491091  RH  073%=      5-min Rain = 0
KEN1 120641Z 18004KT M05/M09 A3023 RMK A01 T10481090  RH  072%=      5-min Rain = 0
KEN1 120642Z 18004KT M05/M09 A3023 RMK A01 T10471090  RH  072%=      5-min Rain = 0
KEN1 120643Z 17004KT M05/M09 A3023 RMK A01 T10461091  RH  071%=      5-min Rain = 0
KEN1 120644Z 17004KT M05/M09 A3023 RMK A01 T10461091  RH  071%=      5-min Rain = 0
KEN1 120645Z 17004KT M05/M09 A3023 RMK A01 T10461091  RH  071%=      5-min Rain = 0
KEN1 120646Z 17004KT M05/M09 A3023 RMK A01 T10461091  RH  071%=      5-min Rain = 0
KEN1 120647Z 17004KT M05/M09 A3023 RMK A01 T10461091  RH  071%=      5-min Rain = 0
KEN1 120648Z 17004KT M05/M09 A3023 RMK A01 T10461091  RH  071%=      5-min Rain = 0
KEN1 120649Z 17004KT M05/M09 A3023 RMK A01 T10461091  RH  071%=      5-min Rain = 0
KEN1 120650Z 17004KT M05/M09 A3023 RMK A01 T10461092  RH  070%=      5-min Rain = 0
KEN1 120651Z 16004KT M05/M09 A3023 RMK A01 T10461092  RH  070%=      5-min Rain = 0
KEN1 120652Z 16005KT M05/M09 A3023 RMK A01 T10461092  RH  070%=      5-min Rain = 0
KEN1 120653Z 15005KT M05/M09 A3023 RMK A01 T10461092  RH  070%=      5-min Rain = 0
KEN1 120654Z 15005KT M05/M09 A3023 RMK A01 T10461092  RH  070%=      5-min Rain = 0
KEN1 120655Z 15006KT M05/M09 A3023 RMK A01 T10471093  RH  070%=      5-min Rain = 0
KEN1 120656Z 15006KT M05/M09 A3023 RMK A01 T10471093  RH  070%=      5-min Rain = 0
KEN1 120657Z 16005KT M05/M09 A3023 RMK A01 T10481093  RH  071%=      5-min Rain = 0
KEN1 120658Z 17005KT M05/M09 A3023 RMK A01 T10481093  RH  071%=      5-min Rain = 0
KEN1 120659Z 17005KT M05/M09 A3023 RMK A01 T10491093  RH  071%=      5-min Rain = 0
KEN1 120700Z 17005KT M05/M09 A3023 RMK A01 T10501093  RH  072%=      5-min Rain = 0
KEN1 120701Z 17005KT M05/M09 A3023 RMK A01 T10491092  RH  072%=      5-min Rain = 0
KEN1 120702Z 17005KT M05/M09 A3023 RMK A01 T10491092  RH  072%=      5-min Rain = 0
KEN1 120703Z 17004KT M05/M09 A3023 RMK A01 T10481092  RH  071%=      5-min Rain = 0
KEN1 120704Z 17004KT M05/M09 A3023 RMK A01 T10481092  RH  071%=      5-min Rain = 0
KEN1 120705Z 18004KT M05/M09 A3023 RMK A01 T10471093  RH  071%=      5-min Rain = 0
KEN1 120706Z 17003KT M05/M09 A3023 RMK A01 T10471093  RH  070%=      5-min Rain = 0
KEN1 120707Z 17003KT M05/M09 A3023 RMK A01 T10471092  RH  070%=      5-min Rain = 0
KEN1 120708Z 17003KT M05/M09 A3023 RMK A01 T10471093  RH  070%=      5-min Rain = 0
KEN1 120709Z 16003KT M05/M09 A3023 RMK A01 T10461092  RH  070%=      5-min Rain = 0
KEN1 120710Z 17003KT M05/M09 A3023 RMK A01 T10461092  RH  070%=      5-min Rain = 0
KEN1 120711Z 16003KT M05/M09 A3023 RMK A01 T10451092  RH  070%=      5-min Rain = 0
KEN1 120712Z 17003KT M05/M09 A3023 RMK A01 T10451092  RH  070%=      5-min Rain = 0
KEN1 120713Z 17003KT M05/M09 A3023 RMK A01 T10451092  RH  069%=      5-min Rain = 0
KEN1 120714Z 18003KT M05/M09 A3023 RMK A01 T10451093  RH  069%=      5-min Rain = 0
KEN1 120715Z 18003KT M05/M09 A3023 RMK A01 T10451093  RH  069%=      5-min Rain = 0
KEN1 120716Z 19003KT M05/M09 A3023 RMK A01 T10451093  RH  069%=      5-min Rain = 0
KEN1 120717Z 18003KT M05/M09 A3023 RMK A01 T10451092  RH  069%=      5-min Rain = 0
KEN1 120718Z 18003KT M05/M09 A3023 RMK A01 T10451092  RH  069%=      5-min Rain = 0
KEN1 120719Z 18003KT M05/M09 A3023 RMK A01 T10451092  RH  069%=      5-min Rain = 0
KEN1 120720Z 18003KT M05/M09 A3023 RMK A01 T10451093  RH  069%=      5-min Rain = 0
KEN1 120721Z 17004KT M05/M09 A3022 RMK A01 T10451093  RH  069%=      5-min Rain = 0
KEN1 120722Z 18004KT M05/M09 A3022 RMK A01 T10451093  RH  069%=      5-min Rain = 0
KEN1 120723Z 18004KT M04/M09 A3022 RMK A01 T10441092  RH  069%=      5-min Rain = 0
KEN1 120724Z 18005KT M04/M09 A3022 RMK A01 T10431092  RH  069%=      5-min Rain = 0
KEN1 120725Z 18005KT M04/M09 A3022 RMK A01 T10441093  RH  069%=      5-min Rain = 0
KEN1 120726Z 18005KT M04/M09 A3022 RMK A01 T10441093  RH  068%=      5-min Rain = 0
KEN1 120727Z 18004KT M05/M09 A3022 RMK A01 T10451094  RH  069%=      5-min Rain = 0
KEN1 120728Z 17004KT M05/M10 A3022 RMK A01 T10461095  RH  069%=      5-min Rain = 0
KEN1 120729Z 17004KT M05/M10 A3022 RMK A01 T10471095  RH  069%=      5-min Rain = 0
KEN1 120730Z 17004KT M05/M09 A3022 RMK A01 T10481094  RH  070%=      5-min Rain = 0
KEN1 120731Z 17004KT M05/M09 A3022 RMK A01 T10481094  RH  070%=      5-min Rain = 0
KEN1 120732Z 16005KT M05/M09 A3022 RMK A01 T10481094  RH  070%=      5-min Rain = 0
KEN1 120733Z 16005KT M05/M09 A3022 RMK A01 T10471093  RH  070%=      5-min Rain = 0
KEN1 120734Z 16005KT M05/M09 A3022 RMK A01 T10461093  RH  070%=      5-min Rain = 0
KEN1 120735Z 16006KT M05/M09 A3022 RMK A01 T10451093  RH  069%=      5-min Rain = 0
KEN1 120736Z 16006KT M04/M09 A3022 RMK A01 T10441093  RH  069%=      5-min Rain = 0
KEN1 120737Z 16006KT M04/M09 A3022 RMK A01 T10441094  RH  068%=      5-min Rain = 0
KEN1 120738Z 16005KT M04/M09 A3022 RMK A01 T10441094  RH  068%=      5-min Rain = 0
KEN1 120739Z 16005KT M05/M09 A3022 RMK A01 T10451094  RH  069%=      5-min Rain = 0
KEN1 120740Z 16005KT M05/M09 A3022 RMK A01 T10461094  RH  069%=      5-min Rain = 0
KEN1 120741Z 16005KT M05/M09 A3022 RMK A01 T10471094  RH  070%=      5-min Rain = 0
KEN1 120742Z 16004KT M05/M09 A3022 RMK A01 T10481094  RH  070%=      5-min Rain = 0
KEN1 120743Z 15005KT M05/M09 A3022 RMK A01 T10491094  RH  071%=      5-min Rain = 0
KEN1 120744Z 16004KT M05/M09 A3022 RMK A01 T10501094  RH  071%=      5-min Rain = 0
KEN1 120745Z 14004KT M05/M09 A3022 RMK A01 T10501093  RH  072%=      5-min Rain = 0
KEN1 120746Z 15004KT M05/M09 A3022 RMK A01 T10501092  RH  072%=      5-min Rain = 0
KEN1 120747Z 15004KT M05/M09 A3022 RMK A01 T10501093  RH  072%=      5-min Rain = 0
KEN1 120748Z 14005KT M05/M09 A3021 RMK A01 T10491093  RH  071%=      5-min Rain = 0
KEN1 120749Z 16005KT M05/M09 A3021 RMK A01 T10501094  RH  071%=      5-min Rain = 0
KEN1 120750Z 15005KT M05/M10 A3021 RMK A01 T10511096  RH  071%=      5-min Rain = 0
KEN1 120751Z 16005KT M05/M10 A3021 RMK A01 T10531097  RH  072%=      5-min Rain = 0
KEN1 120752Z 16005KT M06/M10 A3021 RMK A01 T10551096  RH  073%=      5-min Rain = 0
KEN1 120753Z 16005KT M06/M10 A3021 RMK A01 T10571097  RH  074%=      5-min Rain = 0
KEN1 120754Z 15005KT M06/M10 A3021 RMK A01 T10581097  RH  074%=      5-min Rain = 0
KEN1 120755Z 15005KT M06/M10 A3021 RMK A01 T10591097  RH  075%=      5-min Rain = 0
KEN1 120756Z 15005KT M06/M10 A3021 RMK A01 T10601097  RH  075%=      5-min Rain = 0
KEN1 120757Z 15005KT M06/M10 A302 RMK A01 T10591096  RH  075%=      5-min Rain = 0
KEN1 120758Z 15005KT M06/M10 A302 RMK A01 T10601096  RH  075%=      5-min Rain = 0
KEN1 120759Z 15005KT M06/M10 A302 RMK A01 T10601096  RH  076%=      5-min Rain = 0
KEN1 120800Z 15005KT M06/M10 A302 RMK A01 T10601096  RH  076%=      5-min Rain = 0
KEN1 120801Z 15005KT M06/M10 A302 RMK A01 T10601095  RH  076%=      5-min Rain = 0
KEN1 120802Z 14005KT M06/M10 A302 RMK A01 T10611096  RH  076%=      5-min Rain = 0
KEN1 120803Z 15006KT M06/M10 A302 RMK A01 T10611096  RH  076%=      5-min Rain = 0
KEN1 120804Z 14006KT M06/M10 A302 RMK A01 T10621096  RH  077%=      5-min Rain = 0
KEN1 120805Z 14006KT M06/M10 A302 RMK A01 T10631096  RH  077%=      5-min Rain = 0
KEN1 120806Z 14006KT M06/M10 A302 RMK A01 T10631096  RH  077%=      5-min Rain = 0
KEN1 120807Z 14007KT M06/M10 A302 RMK A01 T10631096  RH  078%=      5-min Rain = 0
KEN1 120808Z 14007KT M06/M10 A302 RMK A01 T10621095  RH  077%=      5-min Rain = 0
KEN1 120809Z 14007KT M06/M10 A302 RMK A01 T10621096  RH  077%=      5-min Rain = 0
KEN1 120810Z 14007KT M06/M10 A302 RMK A01 T10621095  RH  077%=      5-min Rain = 0
KEN1 120811Z 14006KT M06/M10 A302 RMK A01 T10621096  RH  077%=      5-min Rain = 0
KEN1 120812Z 14006KT M06/M10 A302 RMK A01 T10631096  RH  077%=      5-min Rain = 0
KEN1 120813Z 14007KT M06/M10 A302 RMK A01 T10641096  RH  078%=      5-min Rain = 0
KEN1 120814Z 14007KT M07/M10 A302 RMK A01 T10651096  RH  078%=      5-min Rain = 0
KEN1 120815Z 14007KT M07/M10 A302 RMK A01 T10651096  RH  079%=      5-min Rain = 0
KEN1 120816Z 14007KT M07/M10 A302 RMK A01 T10651096  RH  079%=      5-min Rain = 0
KEN1 120817Z 14007KT M07/M10 A302 RMK A01 T10661096  RH  079%=      5-min Rain = 0
KEN1 120818Z 14007KT M07/M10 A3019 RMK A01 T10661096  RH  079%=      5-min Rain = 0
KEN1 120819Z 13007KT M06/M10 A3019 RMK A01 T10641095  RH  079%=      5-min Rain = 0
KEN1 120820Z 13008KT M06/M10 A3019 RMK A01 T10631095  RH  078%=      5-min Rain = 0
KEN1 120821Z 13008KT M06/M10 A3019 RMK A01 T10631096  RH  078%=      5-min Rain = 0
KEN1 120822Z 13008KT M06/M10 A3019 RMK A01 T10631096  RH  078%=      5-min Rain = 0
KEN1 120823Z 13008KT M06/M10 A3018 RMK A01 T10631096  RH  078%=      5-min Rain = 0
KEN1 120824Z 13008KT M06/M10 A3018 RMK A01 T10621095  RH  078%=      5-min Rain = 0
KEN1 120825Z 13008KT M06/M10 A3018 RMK A01 T10621095  RH  078%=      5-min Rain = 0
KEN1 120826Z 13008KT M06/M09 A3018 RMK A01 T10621094  RH  078%=      5-min Rain = 0
KEN1 120827Z 14009KT M06/M09 A3018 RMK A01 T10631094  RH  078%=      5-min Rain = 0
KEN1 120828Z 14009KT M06/M09 A3018 RMK A01 T10631094  RH  079%=      5-min Rain = 0
KEN1 120829Z 14009KT M06/M09 A3018 RMK A01 T10621093  RH  079%=      5-min Rain = 0
KEN1 120830Z 14010KT M06/M09 A3018 RMK A01 T10611093  RH  078%=      5-min Rain = 0
KEN1 120831Z 14009KT M06/M09 A3018 RMK A01 T10611093  RH  078%=      5-min Rain = 0
KEN1 120832Z 14009KT M06/M09 A3018 RMK A01 T10611093  RH  078%=      5-min Rain = 0
KEN1 120833Z 15009KT M06/M09 A3018 RMK A01 T10611093  RH  078%=      5-min Rain = 0
KEN1 120834Z 15009KT M06/M09 A3018 RMK A01 T10611093  RH  078%=      5-min Rain = 0
KEN1 120835Z 15009KT M06/M09 A3018 RMK A01 T10601093  RH  078%=      5-min Rain = 0
KEN1 120836Z 15009KT M06/M09 A3018 RMK A01 T10581092  RH  077%=      5-min Rain = 0
KEN1 120837Z 15009KT M06/M09 A3018 RMK A01 T10571092  RH  077%=      5-min Rain = 0
KEN1 120838Z 15009KT M06/M09 A3018 RMK A01 T10571092  RH  077%=      5-min Rain = 0
KEN1 120839Z 15008KT M06/M09 A3018 RMK A01 T10561092  RH  076%=      5-min Rain = 0
KEN1 120840Z 16008KT M06/M09 A3018 RMK A01 T10561091  RH  076%=      5-min Rain = 0
KEN1 120841Z 16008KT M06/M09 A3018 RMK A01 T10551091  RH  076%=      5-min Rain = 0
KEN1 120842Z 16008KT M05/M09 A3018 RMK A01 T10541091  RH  075%=      5-min Rain = 0
KEN1 120843Z 16008KT M05/M09 A3019 RMK A01 T10531091  RH  075%=      5-min Rain = 0
KEN1 120844Z 16007KT M05/M09 A3019 RMK A01 T10521090  RH  074%=      5-min Rain = 0
KEN1 120845Z 16007KT M05/M09 A3019 RMK A01 T10511090  RH  074%=      5-min Rain = 0
KEN1 120846Z 16007KT M05/M09 A3019 RMK A01 T10511090  RH  074%=      5-min Rain = 0
KEN1 120847Z 17007KT M05/M09 A3018 RMK A01 T10511091  RH  074%=      5-min Rain = 0
KEN1 120848Z 17007KT M05/M09 A3018 RMK A01 T10501090  RH  073%=      5-min Rain = 0
KEN1 120849Z 17006KT M05/M09 A3018 RMK A01 T10491090  RH  073%=      5-min Rain = 0
KEN1 120850Z 17006KT M05/M09 A3018 RMK A01 T10491090  RH  073%=      5-min Rain = 0
KEN1 120851Z 16006KT M05/M09 A3018 RMK A01 T10491090  RH  073%=      5-min Rain = 0
KEN1 120852Z 16006KT M05/M09 A3019 RMK A01 T10481090  RH  072%=      5-min Rain = 0
KEN1 120853Z 16006KT M05/M09 A3019 RMK A01 T10471090  RH  072%=      5-min Rain = 0
KEN1 120854Z 16005KT M05/M09 A3019 RMK A01 T10461090  RH  072%=      5-min Rain = 0
KEN1 120855Z 16005KT M05/M09 A3019 RMK A01 T10451089  RH  071%=      5-min Rain = 0
KEN1 120856Z 16006KT M05/M09 A3019 RMK A01 T10451089  RH  071%=      5-min Rain = 0
KEN1 120857Z 16006KT M05/M09 A3018 RMK A01 T10451089  RH  071%=      5-min Rain = 0
KEN1 120858Z 16006KT M04/M09 A3018 RMK A01 T10441089  RH  071%=      5-min Rain = 0
KEN1 120859Z 16005KT M04/M09 A3018 RMK A01 T10441090  RH  070%=      5-min Rain = 0
KEN1 120900Z 15005KT M04/M09 A3018 RMK A01 T10441089  RH  070%=      5-min Rain = 0
KEN1 120901Z 15006KT M04/M09 A3018 RMK A01 T10431089  RH  070%=      5-min Rain = 0
KEN1 120902Z 15005KT M04/M09 A3018 RMK A01 T10431088  RH  071%=      5-min Rain = 0
KEN1 120903Z 15005KT M04/M09 A3018 RMK A01 T10431088  RH  071%=      5-min Rain = 0
KEN1 120904Z 14006KT M04/M09 A3018 RMK A01 T10441088  RH  071%=      5-min Rain = 0
KEN1 120905Z 14006KT M04/M09 A3019 RMK A01 T10441088  RH  071%=      5-min Rain = 0
KEN1 120906Z 15005KT M04/M09 A3019 RMK A01 T10441088  RH  071%=      5-min Rain = 0
KEN1 120907Z 15005KT M05/M09 A3019 RMK A01 T10451089  RH  072%=      5-min Rain = 0
KEN1 120908Z 16004KT M05/M09 A3018 RMK A01 T10451089  RH  072%=      5-min Rain = 0
KEN1 120909Z 16004KT M05/M09 A3018 RMK A01 T10471090  RH  072%=      5-min Rain = 0
KEN1 120910Z 16004KT M05/M09 A3018 RMK A01 T10481090  RH  073%=      5-min Rain = 0
KEN1 120911Z 16004KT M05/M09 A3018 RMK A01 T10491089  RH  073%=      5-min Rain = 0
KEN1 120912Z 16004KT M05/M09 A3018 RMK A01 T10501089  RH  074%=      5-min Rain = 0
KEN1 120913Z 17004KT M05/M09 A3019 RMK A01 T10501088  RH  074%=      5-min Rain = 0
KEN1 120914Z 16004KT M05/M09 A3019 RMK A01 T10491088  RH  075%=      5-min Rain = 0
KEN1 120915Z 16003KT M05/M09 A3018 RMK A01 T10491087  RH  075%=      5-min Rain = 0
KEN1 120916Z 17004KT M05/M09 A3018 RMK A01 T10501087  RH  075%=      5-min Rain = 0
KEN1 120917Z 17004KT M05/M09 A3019 RMK A01 T10491087  RH  075%=      5-min Rain = 0
KEN1 120918Z 18004KT M05/M09 A3018 RMK A01 T10491087  RH  075%=      5-min Rain = 0
KEN1 120919Z 18004KT M05/M09 A3018 RMK A01 T10491087  RH  075%=      5-min Rain = 0
KEN1 120920Z 17004KT M05/M09 A3018 RMK A01 T10481087  RH  074%=      5-min Rain = 0
KEN1 120921Z 17005KT M05/M09 A3018 RMK A01 T10481087  RH  074%=      5-min Rain = 0
KEN1 120922Z 17004KT M05/M09 A3018 RMK A01 T10471087  RH  074%=      5-min Rain = 0
KEN1 120923Z 16004KT M05/M09 A3018 RMK A01 T10471088  RH  073%=      5-min Rain = 0
KEN1 120924Z 16005KT M05/M09 A3018 RMK A01 T10471088  RH  073%=      5-min Rain = 0
KEN1 120925Z 16005KT M05/M09 A3018 RMK A01 T10471089  RH  072%=      5-min Rain = 0
KEN1 120926Z 16006KT M05/M09 A3018 RMK A01 T10471090  RH  072%=      5-min Rain = 0
KEN1 120927Z 16007KT M05/M09 A3017 RMK A01 T10461089  RH  072%=      5-min Rain = 0
KEN1 120928Z 16006KT M04/M09 A3017 RMK A01 T10421087  RH  071%=      5-min Rain = 0
KEN1 120929Z 16006KT M04/M09 A3018 RMK A01 T10401086  RH  071%=      5-min Rain = 0
KEN1 120930Z 16005KT M04/M09 A3018 RMK A01 T10391086  RH  070%=      5-min Rain = 0
KEN1 120931Z 15005KT M04/M09 A3018 RMK A01 T10401086  RH  070%=      5-min Rain = 0
KEN1 120932Z 15005KT M04/M09 A3018 RMK A01 T10411088  RH  070%=      5-min Rain = 0
KEN1 120933Z 15006KT M04/M09 A3018 RMK A01 T10421088  RH  070%=      5-min Rain = 0
KEN1 120934Z 16005KT M04/M09 A3018 RMK A01 T10421089  RH  070%=      5-min Rain = 0
KEN1 120935Z 17005KT M04/M09 A3018 RMK A01 T10411088  RH  070%=      5-min Rain = 0
KEN1 120936Z 18004KT M04/M09 A3018 RMK A01 T10411088  RH  070%=      5-min Rain = 0
KEN1 120937Z 19003KT M04/M09 A3018 RMK A01 T10421089  RH  070%=      5-min Rain = 0
KEN1 120938Z 19003KT M04/M09 A3018 RMK A01 T10431089  RH  070%=      5-min Rain = 0
KEN1 120939Z 19003KT M04/M09 A3018 RMK A01 T10441090  RH  070%=      5-min Rain = 0
KEN1 120940Z 19003KT M04/M09 A3018 RMK A01 T10441090  RH  070%=      5-min Rain = 0
KEN1 120941Z 20003KT M04/M09 A3018 RMK A01 T10441090  RH  071%=      5-min Rain = 0
KEN1 120942Z 20003KT M04/M09 A3018 RMK A01 T10441090  RH  071%=      5-min Rain = 0
KEN1 120943Z 19003KT M04/M09 A3018 RMK A01 T10431090  RH  070%=      5-min Rain = 0
KEN1 120944Z 19004KT M04/M09 A3018 RMK A01 T10421089  RH  070%=      5-min Rain = 0
KEN1 120945Z 19005KT M04/M09 A3018 RMK A01 T10411089  RH  069%=      5-min Rain = 0
KEN1 120946Z 20004KT M04/M09 A3018 RMK A01 T10401089  RH  069%=      5-min Rain = 0
KEN1 120947Z 22004KT M04/M09 A3018 RMK A01 T10401089  RH  069%=      5-min Rain = 0
KEN1 120948Z 21005KT M04/M09 A3018 RMK A01 T10401089  RH  069%=      5-min Rain = 0
KEN1 120949Z 21006KT M04/M09 A3018 RMK A01 T10401089  RH  069%=      5-min Rain = 0
KEN1 120950Z 21006KT M04/M09 A3018 RMK A01 T10391089  RH  069%=      5-min Rain = 0
KEN1 120951Z 20006KT M04/M09 A3017 RMK A01 T10401090  RH  068%=      5-min Rain = 0
KEN1 120952Z 20007KT M04/M09 A3017 RMK A01 T10411090  RH  069%=      5-min Rain = 0
KEN1 120953Z 19007KT M04/M09 A3017 RMK A01 T10431090  RH  069%=      5-min Rain = 0
KEN1 120954Z 19007KT M04/M09 A3017 RMK A01 T10431090  RH  070%=      5-min Rain = 0
KEN1 120955Z 19008KT M04/M09 A3017 RMK A01 T10431089  RH  070%=      5-min Rain = 0
KEN1 120956Z 19008KT M04/M09 A3017 RMK A01 T10431089  RH  071%=      5-min Rain = 0
KEN1 120957Z 18008KT M04/M09 A3017 RMK A01 T10431088  RH  071%=      5-min Rain = 0
KEN1 120958Z 19008KT M04/M09 A3017 RMK A01 T10411087  RH  070%=      5-min Rain = 0
KEN1 120959Z 19008KT M04/M09 A3017 RMK A01 T10381086  RH  070%=      5-min Rain = 0
KEN1 121000Z 19007KT M04/M09 A3017 RMK A01 T10371086  RH  069%=      5-min Rain = 0
KEN1 121001Z 19008KT M04/M09 A3017 RMK A01 T10371086  RH  069%=      5-min Rain = 0
KEN1 121002Z 18007KT M04/M09 A3017 RMK A01 T10361086  RH  068%=      5-min Rain = 0
KEN1 121003Z 19007KT M04/M09 A3017 RMK A01 T10361086  RH  069%=      5-min Rain = 0
KEN1 121004Z 18006KT M04/M09 A3017 RMK A01 T10381086  RH  069%=      5-min Rain = 0
KEN1 121005Z 18006KT M04/M09 A3017 RMK A01 T10381086  RH  070%=      5-min Rain = 0
KEN1 121006Z 18006KT M04/M09 A3017 RMK A01 T10391086  RH  070%=      5-min Rain = 0
KEN1 121007Z 18007KT M04/M09 A3017 RMK A01 T10401086  RH  070%=      5-min Rain = 0
KEN1 121008Z 17007KT M04/M09 A3017 RMK A01 T10401087  RH  070%=      5-min Rain = 0
KEN1 121009Z 17008KT M04/M09 A3017 RMK A01 T10401087  RH  070%=      5-min Rain = 0
KEN1 121010Z 17007KT M04/M09 A3017 RMK A01 T10401087  RH  070%=      5-min Rain = 0
KEN1 121011Z 17008KT M04/M09 A3017 RMK A01 T10411087  RH  070%=      5-min Rain = 0
KEN1 121012Z 17009KT M04/M09 A3017 RMK A01 T10411087  RH  070%=      5-min Rain = 0
KEN1 121013Z 17008KT M04/M09 A3017 RMK A01 T10411087  RH  070%=      5-min Rain = 0
KEN1 121014Z 17010KT M04/M09 A3017 RMK A01 T10411087  RH  070%=      5-min Rain = 0
KEN1 121015Z 17010KT M04/M09 A3017 RMK A01 T10401086  RH  070%=      5-min Rain = 0
KEN1 121016Z 17011KT M04/M09 A3017 RMK A01 T10381085  RH  070%=      5-min Rain = 0
KEN1 121017Z 17010KT M04/M09 A3017 RMK A01 T10361085  RH  069%=      5-min Rain = 0
KEN1 121018Z 17010KT M03/M09 A3017 RMK A01 T10341085  RH  068%=      5-min Rain = 0
KEN1 121019Z 17011KT M03/M09 A3017 RMK A01 T10341085  RH  068%=      5-min Rain = 0
KEN1 121020Z 17011KT M03/M09 A3017 RMK A01 T10341085  RH  067%=      5-min Rain = 0
KEN1 121021Z 17010KT M03/M09 A3017 RMK A01 T10341085  RH  068%=      5-min Rain = 0
KEN1 121022Z 17010KT M04/M09 A3016 RMK A01 T10351085  RH  068%=      5-min Rain = 0
KEN1 121023Z 17010KT M04/M09 A3016 RMK A01 T10351085  RH  068%=      5-min Rain = 0
KEN1 121024Z 17009KT M04/M09 A3016 RMK A01 T10351085  RH  068%=      5-min Rain = 0
KEN1 121025Z 17010KT M04/M09 A3016 RMK A01 T10361085  RH  069%=      5-min Rain = 0
KEN1 121026Z 17011KT M04/M09 A3016 RMK A01 T10361085  RH  069%=      5-min Rain = 0
KEN1 121027Z 17011KT M04/M09 A3016 RMK A01 T10361086  RH  068%=      5-min Rain = 0
KEN1 121028Z 17011KT M04/M09 A3016 RMK A01 T10351086  RH  068%=      5-min Rain = 0
KEN1 121029Z 17010KT M04/M09 A3015 RMK A01 T10351085  RH  068%=      5-min Rain = 0
KEN1 121030Z 17010KT M04/M08 A3015 RMK A01 T10351084  RH  069%=      5-min Rain = 0
KEN1 121031Z 17010KT M04/M09 A3015 RMK A01 T10361085  RH  069%=      5-min Rain = 0
KEN1 121032Z 18009KT M04/M09 A3016 RMK A01 T10371085  RH  069%=      5-min Rain = 0
KEN1 121033Z 18008KT M04/M09 A3016 RMK A01 T10381085  RH  069%=      5-min Rain = 0
KEN1 121034Z 20007KT M04/M09 A3017 RMK A01 T10381085  RH  070%=      5-min Rain = 0
KEN1 121035Z 21007KT M04/M09 A3018 RMK A01 T10381085  RH  070%=      5-min Rain = 0
KEN1 121036Z 21007KT M04/M09 A3018 RMK A01 T10381086  RH  069%=      5-min Rain = 0
KEN1 121037Z 21007KT M04/M09 A3018 RMK A01 T10371086  RH  068%=      5-min Rain = 0
KEN1 121038Z 20008KT M04/M09 A3018 RMK A01 T10361087  RH  068%=      5-min Rain = 0
KEN1 121039Z 19008KT M04/M09 A3017 RMK A01 T10361087  RH  068%=      5-min Rain = 0
KEN1 121040Z 19009KT M04/M09 A3017 RMK A01 T10361087  RH  068%=      5-min Rain = 0
KEN1 121041Z 18009KT M04/M09 A3017 RMK A01 T10371087  RH  068%=      5-min Rain = 0
KEN1 121042Z 19008KT M04/M09 A3017 RMK A01 T10371087  RH  068%=      5-min Rain = 0
KEN1 121043Z 18009KT M04/M09 A3017 RMK A01 T10371087  RH  068%=      5-min Rain = 0
KEN1 121044Z 19009KT M04/M09 A3017 RMK A01 T10371087  RH  068%=      5-min Rain = 0
KEN1 121045Z 19008KT M04/M09 A3017 RMK A01 T10371086  RH  069%=      5-min Rain = 0
KEN1 121046Z 20008KT M04/M09 A3017 RMK A01 T10381086  RH  069%=      5-min Rain = 0
KEN1 121047Z 20008KT M04/M09 A3018 RMK A01 T10391086  RH  070%=      5-min Rain = 0
KEN1 121048Z 20007KT M04/M09 A3018 RMK A01 T10391086  RH  070%=      5-min Rain = 0
KEN1 121049Z 19008KT M04/M09 A3018 RMK A01 T10401086  RH  070%=      5-min Rain = 0
KEN1 121050Z 18009KT M04/M09 A3017 RMK A01 T10411087  RH  070%=      5-min Rain = 0
KEN1 121051Z 18008KT M04/M09 A3017 RMK A01 T10401087  RH  069%=      5-min Rain = 0
KEN1 121052Z 18009KT M04/M09 A3017 RMK A01 T10401088  RH  069%=      5-min Rain = 0
KEN1 121053Z 18009KT M04/M09 A3017 RMK A01 T10391088  RH  069%=      5-min Rain = 0
KEN1 121054Z 18008KT M04/M09 A3017 RMK A01 T10381087  RH  069%=      5-min Rain = 0
KEN1 121055Z 18008KT M04/M09 A3017 RMK A01 T10371087  RH  068%=      5-min Rain = 0
KEN1 121056Z 18008KT M04/M09 A3017 RMK A01 T10371087  RH  068%=      5-min Rain = 0
KEN1 121057Z 18009KT M04/M09 A3017 RMK A01 T10371087  RH  068%=      5-min Rain = 0
KEN1 121058Z 18008KT M04/M09 A3017 RMK A01 T10381087  RH  068%=      5-min Rain = 0
KEN1 121059Z 18008KT M04/M09 A3017 RMK A01 T10381088  RH  069%=      5-min Rain = 0
KEN1 121100Z 18008KT M04/M09 A3017 RMK A01 T10391088  RH  069%=      5-min Rain = 0
KEN1 121101Z 17007KT M04/M09 A3017 RMK A01 T10411088  RH  069%=      5-min Rain = 0
KEN1 121102Z 17007KT M04/M09 A3017 RMK A01 T10421089  RH  070%=      5-min Rain = 0
KEN1 121103Z 16007KT M04/M09 A3016 RMK A01 T10441090  RH  071%=      5-min Rain = 0
KEN1 121104Z 16008KT M05/M09 A3016 RMK A01 T10451090  RH  071%=      5-min Rain = 0
KEN1 121105Z 16008KT M05/M09 A3016 RMK A01 T10461089  RH  072%=      5-min Rain = 0
KEN1 121106Z 16008KT M05/M09 A3016 RMK A01 T10461089  RH  072%=      5-min Rain = 0
KEN1 121107Z 16008KT M05/M09 A3016 RMK A01 T10461089  RH  072%=      5-min Rain = 0
KEN1 121108Z 16008KT M05/M09 A3016 RMK A01 T10461089  RH  072%=      5-min Rain = 0
KEN1 121109Z 17008KT M05/M09 A3016 RMK A01 T10451089  RH  071%=      5-min Rain = 0
KEN1 121110Z 17008KT M05/M09 A3016 RMK A01 T10451089  RH  071%=      5-min Rain = 0
KEN1 121111Z 18008KT M05/M09 A3016 RMK A01 T10451089  RH  071%=      5-min Rain = 0
KEN1 121112Z 18008KT M05/M09 A3016 RMK A01 T10461090  RH  072%=      5-min Rain = 0
KEN1 121113Z 18008KT M05/M09 A3016 RMK A01 T10471090  RH  072%=      5-min Rain = 0
KEN1 121114Z 18009KT M05/M09 A3016 RMK A01 T10491091  RH  072%=      5-min Rain = 0
KEN1 121115Z 18011KT M05/M09 A3016 RMK A01 T10501091  RH  073%=      5-min Rain = 0
KEN1 121116Z 18011KT M05/M09 A3016 RMK A01 T10501090  RH  073%=      5-min Rain = 0
KEN1 121117Z 18010KT M05/M09 A3016 RMK A01 T10491089  RH  074%=      5-min Rain = 0
KEN1 121118Z 18010KT M05/M09 A3016 RMK A01 T10471088  RH  073%=      5-min Rain = 0
KEN1 121119Z 18010KT M05/M09 A3016 RMK A01 T10451088  RH  072%=      5-min Rain = 0
KEN1 121120Z 18010KT M04/M09 A3016 RMK A01 T10431087  RH  071%=      5-min Rain = 0
KEN1 121121Z 17009KT M04/M09 A3016 RMK A01 T10401087  RH  070%=      5-min Rain = 0
KEN1 121122Z 18010KT M04/M09 A3016 RMK A01 T10391087  RH  069%=      5-min Rain = 0
KEN1 121123Z 18010KT M04/M09 A3015 RMK A01 T10371087  RH  068%=      5-min Rain = 0
KEN1 121124Z 18009KT M04/M09 A3015 RMK A01 T10361087  RH  068%=      5-min Rain = 0
KEN1 121125Z 18008KT M04/M09 A3015 RMK A01 T10371088  RH  068%=      5-min Rain = 0
KEN1 121126Z 18008KT M04/M09 A3015 RMK A01 T10381088  RH  068%=      5-min Rain = 0
KEN1 121127Z 18007KT M04/M09 A3015 RMK A01 T10401088  RH  069%=      5-min Rain = 0
KEN1 121128Z 18007KT M04/M09 A3015 RMK A01 T10411089  RH  070%=      5-min Rain = 0
KEN1 121129Z 19007KT M04/M09 A3015 RMK A01 T10421089  RH  070%=      5-min Rain = 0
KEN1 121130Z 18007KT M04/M09 A3015 RMK A01 T10431089  RH  070%=      5-min Rain = 0
KEN1 121131Z 18007KT M04/M09 A3015 RMK A01 T10441089  RH  070%=      5-min Rain = 0
KEN1 121132Z 19006KT M04/M09 A3016 RMK A01 T10441090  RH  071%=      5-min Rain = 0
KEN1 121133Z 19007KT M05/M09 A3015 RMK A01 T10451090  RH  071%=      5-min Rain = 0
KEN1 121134Z 19008KT M05/M09 A3016 RMK A01 T10461090  RH  072%=      5-min Rain = 0
KEN1 121135Z 19008KT M05/M09 A3015 RMK A01 T10461089  RH  072%=      5-min Rain = 0
KEN1 121136Z 18009KT M05/M09 A3015 RMK A01 T10461089  RH  072%=      5-min Rain = 0
KEN1 121137Z 18010KT M04/M09 A3015 RMK A01 T10441089  RH  071%=      5-min Rain = 0
KEN1 121138Z 18010KT M04/M09 A3015 RMK A01 T10421088  RH  071%=      5-min Rain = 0
KEN1 121139Z 18010KT M04/M09 A3015 RMK A01 T10401087  RH  070%=      5-min Rain = 0
KEN1 121140Z 18011KT M04/M09 A3015 RMK A01 T10361085  RH  069%=      5-min Rain = 0
KEN1 121141Z 18012KT M03/M09 A3015 RMK A01 T10331085  RH  067%=      5-min Rain = 0
KEN1 121142Z 18011KT M03/M09 A3015 RMK A01 T10301086  RH  066%=      5-min Rain = 0
KEN1 121143Z 18011KT M03/M09 A3015 RMK A01 T10301086  RH  065%=      5-min Rain = 0
KEN1 121144Z 17012KT M03/M09 A3015 RMK A01 T10301087  RH  065%=      5-min Rain = 0
KEN1 121145Z 17012KT M03/M09 A3014 RMK A01 T10301087  RH  065%=      5-min Rain = 0
KEN1 121146Z 17011KT M03/M09 A3014 RMK A01 T10311087  RH  065%=      5-min Rain = 0
KEN1 121147Z 18010KT M03/M09 A3014 RMK A01 T10311087  RH  065%=      5-min Rain = 0
KEN1 121148Z 18009KT M03/M09 A3014 RMK A01 T10321087  RH  066%=      5-min Rain = 0
KEN1 121149Z 18010KT M03/M09 A3015 RMK A01 T10331087  RH  066%=      5-min Rain = 0
KEN1 121150Z 18010KT M03/M09 A3015 RMK A01 T10331087  RH  066%=      5-min Rain = 0
KEN1 121151Z 18012KT M03/M09 A3015 RMK A01 T10331087  RH  066%=      5-min Rain = 0
KEN1 121152Z 18012KT M03/M09 A3014 RMK A01 T10311086  RH  065%=      5-min Rain = 0
KEN1 121153Z 18012KT M03/M09 A3015 RMK A01 T10281087  RH  064%=      5-min Rain = 0
KEN1 121154Z 18011G16KT M03/M09 A3015 RMK A01 T10281087  RH  064%=      5-min Rain = 0
KEN1 121155Z 18014KT M03/M09 A3015 RMK A01 T10281087  RH  064%=      5-min Rain = 0
KEN1 121156Z 18011KT M03/M09 A3015 RMK A01 T10281087  RH  064%=      5-min Rain = 0
KEN1 121157Z 19011KT M03/M09 A3015 RMK A01 T10281087  RH  064%=      5-min Rain = 0
KEN1 121158Z 18012KT M03/M09 A3015 RMK A01 T10281087  RH  064%=      5-min Rain = 0
KEN1 121159Z 18011KT M03/M09 A3015 RMK A01 T10291088  RH  064%=      5-min Rain = 0
KEN1 121200Z 18012KT M03/M09 A3015 RMK A01 T10291088  RH  064%=      5-min Rain = 0
KEN1 121201Z 18011KT M03/M09 A3015 RMK A01 T10281088  RH  063%=      5-min Rain = 0
KEN1 121202Z 18011KT M03/M09 A3015 RMK A01 T10271088  RH  063%=      5-min Rain = 0
KEN1 121203Z 18011KT M03/M09 A3015 RMK A01 T10271088  RH  063%=      5-min Rain = 0
KEN1 121204Z 18013KT M03/M09 A3015 RMK A01 T10281088  RH  063%=      5-min Rain = 0
KEN1 121205Z 17012KT M03/M09 A3015 RMK A01 T10271088  RH  063%=      5-min Rain = 0
KEN1 121206Z 17011KT M03/M09 A3014 RMK A01 T10271088  RH  063%=      5-min Rain = 0
KEN1 121207Z 17012KT M03/M09 A3014 RMK A01 T10271088  RH  063%=      5-min Rain = 0
KEN1 121208Z 17012KT M03/M09 A3014 RMK A01 T10271089  RH  062%=      5-min Rain = 0
KEN1 121209Z 17011KT M03/M09 A3014 RMK A01 T10271088  RH  063%=      5-min Rain = 0
KEN1 121210Z 17011KT M03/M09 A3014 RMK A01 T10281089  RH  063%=      5-min Rain = 0
KEN1 121211Z 17010KT M03/M09 A3014 RMK A01 T10281089  RH  063%=      5-min Rain = 0
KEN1 121212Z 17010KT M03/M09 A3015 RMK A01 T10291089  RH  064%=      5-min Rain = 0
KEN1 121213Z 17010KT M03/M09 A3015 RMK A01 T10301089  RH  064%=      5-min Rain = 0
KEN1 121214Z 17010KT M03/M09 A3015 RMK A01 T10301089  RH  064%=      5-min Rain = 0
KEN1 121215Z 18008KT M03/M09 A3015 RMK A01 T10301089  RH  064%=      5-min Rain = 0
KEN1 121216Z 17008KT M03/M09 A3015 RMK A01 T10311089  RH  064%=      5-min Rain = 0
KEN1 121217Z 17007KT M03/M09 A3015 RMK A01 T10311089  RH  064%=      5-min Rain = 0
KEN1 121218Z 17007KT M03/M09 A3015 RMK A01 T10311089  RH  064%=      5-min Rain = 0
KEN1 121219Z 17007KT M03/M09 A3015 RMK A01 T10321089  RH  064%=      5-min Rain = 0
KEN1 121220Z 17006KT M03/M09 A3015 RMK A01 T10321090  RH  064%=      5-min Rain = 0
KEN1 121221Z 17007KT M03/M09 A3015 RMK A01 T10321090  RH  064%=      5-min Rain = 0
KEN1 121222Z 17007KT M03/M09 A3015 RMK A01 T10321090  RH  064%=      5-min Rain = 0
KEN1 121223Z 17006KT M03/M09 A3015 RMK A01 T10321090  RH  064%=      5-min Rain = 0
KEN1 121224Z 17007KT M03/M09 A3015 RMK A01 T10331090  RH  065%=      5-min Rain = 0
KEN1 121225Z 17006KT M03/M09 A3015 RMK A01 T10331090  RH  065%=      5-min Rain = 0
KEN1 121226Z 18006KT M03/M09 A3015 RMK A01 T10341091  RH  065%=      5-min Rain = 0
KEN1 121227Z 19005KT M03/M09 A3015 RMK A01 T10341091  RH  065%=      5-min Rain = 0
KEN1 121228Z 18005KT M03/M09 A3015 RMK A01 T10341091  RH  065%=      5-min Rain = 0
KEN1 121229Z 19005KT M03/M09 A3015 RMK A01 T10341091  RH  065%=      5-min Rain = 0
KEN1 121230Z 19006KT M03/M09 A3015 RMK A01 T10341091  RH  065%=      5-min Rain = 0
KEN1 121231Z 20005KT M03/M09 A3015 RMK A01 T10341092  RH  064%=      5-min Rain = 0
KEN1 121232Z 21005KT M03/M09 A3015 RMK A01 T10341092  RH  064%=      5-min Rain = 0
KEN1 121233Z 23004KT M03/M09 A3015 RMK A01 T10341093  RH  064%=      5-min Rain = 0
KEN1 121234Z 24005KT M04/M09 A3015 RMK A01 T10361094  RH  064%=      5-min Rain = 0
KEN1 121235Z 24005KT M04/M09 A3015 RMK A01 T10391093  RH  066%=      5-min Rain = 0
KEN1 121236Z 23006KT M04/M09 A3015 RMK A01 T10401093  RH  067%=      5-min Rain = 0
KEN1 121237Z 23007KT M04/M09 A3015 RMK A01 T10411092  RH  067%=      5-min Rain = 0
KEN1 121238Z 23007KT M04/M09 A3016 RMK A01 T10401091  RH  067%=      5-min Rain = 0
KEN1 121239Z 22008KT M04/M09 A3016 RMK A01 T10381091  RH  067%=      5-min Rain = 0
KEN1 121240Z 21008KT M04/M09 A3016 RMK A01 T10361090  RH  066%=      5-min Rain = 0
KEN1 121241Z 21007KT M03/M09 A3016 RMK A01 T10331090  RH  065%=      5-min Rain = 0
KEN1 121242Z 21006KT M03/M09 A3016 RMK A01 T10321091  RH  064%=      5-min Rain = 0
KEN1 121243Z 21007KT M03/M09 A3016 RMK A01 T10321092  RH  063%=      5-min Rain = 0
KEN1 121244Z 20008KT M03/M09 A3016 RMK A01 T10311092  RH  063%=      5-min Rain = 0
KEN1 121245Z 21008KT M03/M09 A3015 RMK A01 T10301092  RH  062%=      5-min Rain = 0
KEN1 121246Z 21008KT M03/M09 A3015 RMK A01 T10291092  RH  062%=      5-min Rain = 0
KEN1 121247Z 21008KT M03/M09 A3015 RMK A01 T10291092  RH  062%=      5-min Rain = 0
KEN1 121248Z 20009KT M03/M09 A3015 RMK A01 T10291092  RH  062%=      5-min Rain = 0
KEN1 121249Z 20010KT M03/M09 A3015 RMK A01 T10301092  RH  062%=      5-min Rain = 0
KEN1 121250Z 20009KT M03/M09 A3014 RMK A01 T10311092  RH  063%=      5-min Rain = 0
KEN1 121251Z 20010KT M03/M09 A3014 RMK A01 T10331092  RH  064%=      5-min Rain = 0
KEN1 121252Z 19010KT M03/M09 A3015 RMK A01 T10341092  RH  064%=      5-min Rain = 0
KEN1 121253Z 20010KT M04/M09 A3014 RMK A01 T10351092  RH  065%=      5-min Rain = 0
KEN1 121254Z 19010KT M03/M09 A3014 RMK A01 T10341091  RH  065%=      5-min Rain = 0
KEN1 121255Z 19010KT M03/M09 A3014 RMK A01 T10341091  RH  065%=      5-min Rain = 0
KEN1 121256Z 19010KT M03/M09 A3014 RMK A01 T10341092  RH  064%=      5-min Rain = 0
KEN1 121257Z 19009KT M03/M09 A3014 RMK A01 T10341091  RH  064%=      5-min Rain = 0
KEN1 121258Z 19009KT M03/M09 A3014 RMK A01 T10341092  RH  064%=      5-min Rain = 0
KEN1 121259Z 19008KT M03/M09 A3014 RMK A01 T10341092  RH  064%=      5-min Rain = 0
KEN1 121300Z 19007KT M03/M09 A3015 RMK A01 T10341092  RH  064%=      5-min Rain = 0
KEN1 121301Z 19007KT M03/M09 A3015 RMK A01 T10341091  RH  064%=      5-min Rain = 0
KEN1 121302Z 19006KT M04/M09 A3015 RMK A01 T10351092  RH  064%=      5-min Rain = 0
KEN1 121303Z 19006KT M04/M09 A3015 RMK A01 T10361092  RH  065%=      5-min Rain = 0
KEN1 121304Z 20006KT M04/M09 A3015 RMK A01 T10371093  RH  065%=      5-min Rain = 0
KEN1 121305Z 20006KT M04/M09 A3015 RMK A01 T10381093  RH  066%=      5-min Rain = 0
KEN1 121306Z 20006KT M04/M09 A3015 RMK A01 T10391093  RH  066%=      5-min Rain = 0
KEN1 121307Z 19006KT M04/M09 A3015 RMK A01 T10401094  RH  066%=      5-min Rain = 0
KEN1 121308Z 20006KT M04/M09 A3015 RMK A01 T10401094  RH  066%=      5-min Rain = 0
KEN1 121309Z 20007KT M04/M09 A3015 RMK A01 T10391093  RH  066%=      5-min Rain = 0
KEN1 121310Z 19008KT M04/M09 A3015 RMK A01 T10391094  RH  066%=      5-min Rain = 0
KEN1 121311Z 19008KT M04/M09 A3015 RMK A01 T10391094  RH  066%=      5-min Rain = 0
KEN1 121312Z 19008KT M04/M09 A3015 RMK A01 T10381093  RH  066%=      5-min Rain = 0
KEN1 121313Z 19008KT M04/M09 A3015 RMK A01 T10381093  RH  066%=      5-min Rain = 0
KEN1 121314Z 19009KT M04/M09 A3015 RMK A01 T10381092  RH  066%=      5-min Rain = 0
KEN1 121315Z 19009KT M04/M09 A3015 RMK A01 T10371092  RH  066%=      5-min Rain = 0
KEN1 121316Z 19009KT M04/M09 A3015 RMK A01 T10361091  RH  065%=      5-min Rain = 0
KEN1 121317Z 19009KT M04/M09 A3015 RMK A01 T10351092  RH  065%=      5-min Rain = 0
KEN1 121318Z 19008KT M04/M09 A3016 RMK A01 T10351092  RH  065%=      5-min Rain = 0
KEN1 121319Z 19009KT M04/M09 A3016 RMK A01 T10351091  RH  065%=      5-min Rain = 0
KEN1 121320Z 19009KT M04/M09 A3016 RMK A01 T10361091  RH  065%=      5-min Rain = 0
KEN1 121321Z 19008KT M04/M09 A3016 RMK A01 T10361091  RH  066%=      5-min Rain = 0
KEN1 121322Z 19008KT M04/M09 A3016 RMK A01 T10371091  RH  066%=      5-min Rain = 0
KEN1 121323Z 20008KT M04/M09 A3016 RMK A01 T10381091  RH  067%=      5-min Rain = 0
KEN1 121324Z 20008KT M04/M09 A3016 RMK A01 T10391091  RH  067%=      5-min Rain = 0
KEN1 121325Z 20008KT M04/M09 A3016 RMK A01 T10401090  RH  068%=      5-min Rain = 0
KEN1 121326Z 20008KT M04/M09 A3016 RMK A01 T10401090  RH  068%=      5-min Rain = 0
KEN1 121327Z 21008KT M04/M09 A3016 RMK A01 T10401091  RH  068%=      5-min Rain = 0
KEN1 121328Z 21008KT M04/M09 A3016 RMK A01 T10411091  RH  068%=      5-min Rain = 0
KEN1 121329Z 20008KT M04/M09 A3016 RMK A01 T10411092  RH  068%=      5-min Rain = 0
KEN1 121330Z 21007KT M04/M09 A3016 RMK A01 T10411092  RH  068%=      5-min Rain = 0
KEN1 121331Z 20007KT M04/M09 A3016 RMK A01 T10401091  RH  067%=      5-min Rain = 0
KEN1 121332Z 20006KT M04/M09 A3016 RMK A01 T10401092  RH  067%=      5-min Rain = 0
KEN1 121333Z 21006KT M04/M09 A3016 RMK A01 T10401092  RH  067%=      5-min Rain = 0
KEN1 121334Z 20006KT M04/M09 A3016 RMK A01 T10401092  RH  067%=      5-min Rain = 0
KEN1 121335Z 20006KT M04/M09 A3016 RMK A01 T10411093  RH  067%=      5-min Rain = 0
KEN1 121336Z 20007KT M04/M09 A3016 RMK A01 T10411093  RH  067%=      5-min Rain = 0
KEN1 121337Z 20006KT M04/M09 A3016 RMK A01 T10411093  RH  067%=      5-min Rain = 0
KEN1 121338Z 20006KT M04/M09 A3016 RMK A01 T10421093  RH  067%=      5-min Rain = 0
KEN1 121339Z 20006KT M04/M09 A3016 RMK A01 T10421094  RH  067%=      5-min Rain = 0
KEN1 121340Z 20006KT M04/M10 A3016 RMK A01 T10441095  RH  068%=      5-min Rain = 0
KEN1 121341Z 20006KT M04/M09 A3016 RMK A01 T10441094  RH  068%=      5-min Rain = 0
KEN1 121342Z 20006KT M05/M09 A3016 RMK A01 T10451094  RH  068%=      5-min Rain = 0
KEN1 121343Z 20007KT M04/M09 A3016 RMK A01 T10441094  RH  068%=      5-min Rain = 0
KEN1 121344Z 19008KT M04/M09 A3016 RMK A01 T10441093  RH  068%=      5-min Rain = 0
KEN1 121345Z 19008KT M04/M09 A3016 RMK A01 T10421093  RH  068%=      5-min Rain = 0
KEN1 121346Z 19007KT M04/M09 A3016 RMK A01 T10421093  RH  068%=      5-min Rain = 0
KEN1 121347Z 19007KT M04/M09 A3015 RMK A01 T10411092  RH  068%=      5-min Rain = 0
KEN1 121348Z 19009KT M04/M09 A3015 RMK A01 T10421093  RH  068%=      5-min Rain = 0
KEN1 121349Z 19009KT M04/M09 A3015 RMK A01 T10431093  RH  068%=      5-min Rain = 0
KEN1 121350Z 19009KT M04/M09 A3015 RMK A01 T10421092  RH  068%=      5-min Rain = 0
KEN1 121351Z 19009KT M04/M09 A3016 RMK A01 T10421091  RH  068%=      5-min Rain = 0
KEN1 121352Z 18008KT M04/M09 A3016 RMK A01 T10411090  RH  068%=      5-min Rain = 0
KEN1 121353Z 18008KT M04/M09 A3016 RMK A01 T10411090  RH  068%=      5-min Rain = 0
KEN1 121354Z 17007KT M04/M09 A3016 RMK A01 T10411090  RH  068%=      5-min Rain = 0
KEN1 121355Z 17008KT M04/M09 A3016 RMK A01 T10421091  RH  069%=      5-min Rain = 0
KEN1 121356Z 18009KT M04/M09 A3016 RMK A01 T10421090  RH  069%=      5-min Rain = 0
KEN1 121357Z 17009KT M04/M09 A3016 RMK A01 T10421090  RH  069%=      5-min Rain = 0
KEN1 121358Z 17009KT M04/M09 A3016 RMK A01 T10421090  RH  069%=      5-min Rain = 0
KEN1 121359Z 17009KT M04/M09 A3016 RMK A01 T10421089  RH  069%=      5-min Rain = 0
KEN1 121400Z 18010KT M04/M09 A3015 RMK A01 T10431090  RH  069%=      5-min Rain = 0
KEN1 121401Z 18010KT M04/M09 A3015 RMK A01 T10431090  RH  069%=      5-min Rain = 0
KEN1 121402Z 19010KT M04/M09 A3015 RMK A01 T10421090  RH  069%=      5-min Rain = 0
KEN1 121403Z 19010KT M04/M09 A3016 RMK A01 T10411089  RH  069%=      5-min Rain = 0
KEN1 121404Z 19010KT M04/M09 A3016 RMK A01 T10421090  RH  069%=      5-min Rain = 0
KEN1 121405Z 19009KT M04/M09 A3015 RMK A01 T10431090  RH  070%=      5-min Rain = 0
KEN1 121406Z 19009KT M04/M09 A3015 RMK A01 T10431090  RH  070%=      5-min Rain = 0
KEN1 121407Z 19009KT M04/M09 A3015 RMK A01 T10421089  RH  070%=      5-min Rain = 0
KEN1 121408Z 20009KT M04/M09 A3015 RMK A01 T10411088  RH  070%=      5-min Rain = 0
KEN1 121409Z 19009KT M04/M09 A3015 RMK A01 T10411088  RH  070%=      5-min Rain = 0
KEN1 121410Z 20009KT M04/M09 A3015 RMK A01 T10411088  RH  070%=      5-min Rain = 0
KEN1 121411Z 20008KT M04/M09 A3015 RMK A01 T10421088  RH  070%=      5-min Rain = 0
KEN1 121412Z 19008KT M04/M09 A3015 RMK A01 T10421088  RH  070%=      5-min Rain = 0
KEN1 121413Z 19008KT M04/M09 A3015 RMK A01 T10421088  RH  071%=      5-min Rain = 0
KEN1 121414Z 19008KT M04/M09 A3015 RMK A01 T10421088  RH  071%=      5-min Rain = 0
KEN1 121415Z 19007KT M04/M09 A3015 RMK A01 T10431087  RH  071%=      5-min Rain = 0
KEN1 121416Z 18007KT M04/M09 A3015 RMK A01 T10431087  RH  071%=      5-min Rain = 0
KEN1 121417Z 18008KT M04/M09 A3015 RMK A01 T10441087  RH  072%=      5-min Rain = 0
KEN1 121418Z 18007KT M04/M09 A3015 RMK A01 T10431087  RH  072%=      5-min Rain = 0
KEN1 121419Z 18006KT M04/M09 A3016 RMK A01 T10431087  RH  072%=      5-min Rain = 0
KEN1 121420Z 18006KT M04/M09 A3016 RMK A01 T10431087  RH  072%=      5-min Rain = 0
KEN1 121421Z 17006KT M04/M09 A3016 RMK A01 T10431087  RH  072%=      5-min Rain = 0
KEN1 121422Z 18007KT M04/M09 A3015 RMK A01 T10431087  RH  071%=      5-min Rain = 0
KEN1 121423Z 18007KT M04/M09 A3015 RMK A01 T10421087  RH  071%=      5-min Rain = 0
KEN1 121424Z 19007KT M04/M09 A3016 RMK A01 T10411086  RH  071%=      5-min Rain = 0
KEN1 121425Z 19008KT M04/M09 A3015 RMK A01 T10401086  RH  070%=      5-min Rain = 0
KEN1 121426Z 19008KT M04/M09 A3015 RMK A01 T10391086  RH  070%=      5-min Rain = 0
KEN1 121427Z 19008KT M04/M09 A3015 RMK A01 T10391085  RH  070%=      5-min Rain = 0
KEN1 121428Z 21008KT M04/M09 A3015 RMK A01 T10391085  RH  070%=      5-min Rain = 0
KEN1 121429Z 21008KT M04/M09 A3015 RMK A01 T10391085  RH  070%=      5-min Rain = 0
KEN1 121430Z 20008KT M04/M08 A3015 RMK A01 T10381084  RH  070%=      5-min Rain = 0
KEN1 121431Z 20008KT M04/M08 A3014 RMK A01 T10381083  RH  071%=      5-min Rain = 0
KEN1 121432Z 21008KT M04/M08 A3015 RMK A01 T10381082  RH  071%=      5-min Rain = 0
KEN1 121433Z 21008KT M04/M08 A3015 RMK A01 T10371081  RH  071%=      5-min Rain = 0
KEN1 121434Z 20009KT M04/M08 A3014 RMK A01 T10361081  RH  071%=      5-min Rain = 0
KEN1 121435Z 19010KT M04/M08 A3014 RMK A01 T10351080  RH  071%=      5-min Rain = 0
KEN1 121436Z 19009KT M03/M08 A3014 RMK A01 T10341079  RH  071%=      5-min Rain = 0
KEN1 121437Z 19009KT M03/M08 A3014 RMK A01 T10341079  RH  071%=      5-min Rain = 0
KEN1 121438Z 19010KT M03/M08 A3014 RMK A01 T10341079  RH  071%=      5-min Rain = 0
KEN1 121439Z 19011KT M04/M08 A3014 RMK A01 T10351079  RH  071%=      5-min Rain = 0
KEN1 121440Z 18010KT M03/M08 A3013 RMK A01 T10341079  RH  071%=      5-min Rain = 0
KEN1 121441Z 19012KT M03/M08 A3013 RMK A01 T10341079  RH  071%=      5-min Rain = 0
KEN1 121442Z 19012KT M03/M08 A3012 RMK A01 T10341078  RH  071%=      5-min Rain = 0
KEN1 121443Z 19012KT M03/M08 A3012 RMK A01 T10341078  RH  071%=      5-min Rain = 0
KEN1 121444Z 19012KT M03/M08 A3012 RMK A01 T10331077  RH  071%=      5-min Rain = 0
KEN1 121445Z 19012KT M03/M08 A3011 RMK A01 T10321076  RH  071%=      5-min Rain = 0
KEN1 121446Z 20011KT M03/M08 A3011 RMK A01 T10311075  RH  072%=      5-min Rain = 0
KEN1 121447Z 20009KT M03/M07 A3012 RMK A01 T10301074  RH  072%=      5-min Rain = 0
KEN1 121448Z 21009KT M03/M07 A3012 RMK A01 T10291072  RH  072%=      5-min Rain = 0
KEN1 121449Z 21009KT M03/M07 A3013 RMK A01 T10271071  RH  072%=      5-min Rain = 0
KEN1 121450Z 20008KT M02/M07 A3013 RMK A01 T10241070  RH  071%=      5-min Rain = 0
KEN1 121451Z 19006G11KT M02/M07 A3014 RMK A01 T10221070  RH  069%=      5-min Rain = 0
KEN1 121452Z 19005KT M02/M07 A3014 RMK A01 T10211070  RH  069%=      5-min Rain = 0
KEN1 121453Z 20004KT M02/M07 A3015 RMK A01 T10201071  RH  068%=      5-min Rain = 0
KEN1 121454Z 22003KT M02/M07 A3015 RMK A01 T10191071  RH  067%=      5-min Rain = 0
KEN1 121455Z 21003KT M02/M07 A3015 RMK A01 T10181071  RH  067%=      5-min Rain = 0
KEN1 121456Z 19005KT M02/M07 A3014 RMK A01 T10171070  RH  067%=      5-min Rain = 0
KEN1 121457Z 20004KT M02/M07 A3014 RMK A01 T10171069  RH  067%=      5-min Rain = 0
KEN1 121458Z 20003KT M02/M07 A3014 RMK A01 T10171068  RH  068%=      5-min Rain = 0
KEN1 121459Z 20003KT M02/M07 A3014 RMK A01 T10171068  RH  068%=      5-min Rain = 0
KEN1 121500Z 21003KT M02/M07 A3014 RMK A01 T10181069  RH  068%=      5-min Rain = 0
KEN1 121501Z 23003KT M02/M07 A3014 RMK A01 T10181068  RH  069%=      5-min Rain = 0
KEN1 121502Z 24002KT M02/M07 A3014 RMK A01 T10161065  RH  069%=      5-min Rain = 0
KEN1 121503Z 24001KT M01/M07 A3015 RMK A01 T10141065  RH  068%=      5-min Rain = 0
KEN1 121504Z 29003KT M01/M07 A3015 RMK A01 T10131065  RH  067%=      5-min Rain = 0
KEN1 121505Z 28004KT M01/M07 A3015 RMK A01 T10121067  RH  066%=      5-min Rain = 0
KEN1 121506Z 23004KT M01/M07 A3014 RMK A01 T10121068  RH  066%=      5-min Rain = 0
KEN1 121507Z 22005KT M01/M07 A3013 RMK A01 T10121069  RH  065%=      5-min Rain = 0
KEN1 121508Z 22006KT M01/M07 A3013 RMK A01 T10121069  RH  065%=      5-min Rain = 0
KEN1 121509Z 24005KT M01/M07 A3014 RMK A01 T10121068  RH  066%=      5-min Rain = 0
KEN1 121510Z 23005KT M01/M07 A3014 RMK A01 T10131069  RH  065%=      5-min Rain = 0
KEN1 121511Z 20004KT M01/M07 A3013 RMK A01 T10131069  RH  066%=      5-min Rain = 0
KEN1 121512Z 19005KT M01/M07 A3012 RMK A01 T10131067  RH  066%=      5-min Rain = 0
KEN1 121513Z 20007KT M01/M07 A3013 RMK A01 T10121066  RH  067%=      5-min Rain = 0
KEN1 121514Z 20006KT M01/M07 A3013 RMK A01 T10111066  RH  066%=      5-min Rain = 0
KEN1 121515Z 21004KT M01/M07 A3013 RMK A01 T10101066  RH  066%=      5-min Rain = 0
KEN1 121516Z 28004KT M01/M07 A3014 RMK A01 T10091066  RH  065%=      5-min Rain = 0
KEN1 121517Z 32008KT M01/M07 A3016 RMK A01 T10081065  RH  065%=      5-min Rain = 0
KEN1 121518Z 33012KT M01/M07 A3017 RMK A01 T10071065  RH  065%=      5-min Rain = 0
KEN1 121519Z 33010KT M01/M07 A3017 RMK A01 T10091067  RH  065%=      5-min Rain = 0
KEN1 121520Z 34007KT M01/M07 A3016 RMK A01 T10111068  RH  065%=      5-min Rain = 0
KEN1 121521Z 33007KT M01/M07 A3016 RMK A01 T10141071  RH  065%=      5-min Rain = 0
KEN1 121522Z 34007KT M02/M07 A3016 RMK A01 T10171071  RH  067%=      5-min Rain = 0
KEN1 121523Z 35006KT M02/M07 A3015 RMK A01 T10191072  RH  067%=      5-min Rain = 0
KEN1 121524Z 00004KT M02/M07 A3015 RMK A01 T10201071  RH  068%=      5-min Rain = 0
KEN1 121525Z 35005KT M02/M07 A3015 RMK A01 T10201069  RH  069%=      5-min Rain = 0
KEN1 121526Z 34004KT M02/M07 A3015 RMK A01 T10201069  RH  069%=      5-min Rain = 0
KEN1 121527Z 35003KT M02/M07 A3015 RMK A01 T10201069  RH  069%=      5-min Rain = 0
KEN1 121528Z 34003KT M02/M07 A3015 RMK A01 T10201070  RH  069%=      5-min Rain = 0
KEN1 121529Z 34003KT M02/M07 A3015 RMK A01 T10191070  RH  068%=      5-min Rain = 0
KEN1 121530Z 34004KT M02/M07 A3015 RMK A01 T10201070  RH  068%=      5-min Rain = 0
KEN1 121531Z 35004KT M02/M07 A3015 RMK A01 T10191069  RH  069%=      5-min Rain = 0
KEN1 121532Z 35005KT M02/M07 A3016 RMK A01 T10191068  RH  069%=      5-min Rain = 0
KEN1 121533Z 34006KT M02/M07 A3016 RMK A01 T10191067  RH  070%=      5-min Rain = 0
KEN1 121534Z 33004KT M02/M07 A3016 RMK A01 T10181067  RH  070%=      5-min Rain = 0
KEN1 121535Z 33003KT M02/M07 A3016 RMK A01 T10181067  RH  069%=      5-min Rain = 0
KEN1 121536Z 33005KT M02/M07 A3016 RMK A01 T10171069  RH  068%=      5-min Rain = 0
KEN1 121537Z 32004KT M02/M07 A3016 RMK A01 T10171068  RH  068%=      5-min Rain = 0
KEN1 121538Z 31003KT M02/M07 A3015 RMK A01 T10161066  RH  069%=      5-min Rain = 0
KEN1 121539Z 30003KT M02/M07 A3015 RMK A01 T10161067  RH  068%=      5-min Rain = 0
KEN1 121540Z 31004KT M02/M07 A3016 RMK A01 T10161067  RH  068%=      5-min Rain = 0
KEN1 121541Z 30004KT M02/M07 A3016 RMK A01 T10171067  RH  068%=      5-min Rain = 0
KEN1 121542Z 30004KT M02/M07 A3016 RMK A01 T10171067  RH  069%=      5-min Rain = 0
KEN1 121543Z 29003KT M02/M07 A3016 RMK A01 T10171067  RH  069%=      5-min Rain = 0
KEN1 121544Z 28003KT M02/M07 A3015 RMK A01 T10171067  RH  068%=      5-min Rain = 0
KEN1 121545Z 29003KT M02/M07 A3016 RMK A01 T10171068  RH  068%=      5-min Rain = 0
KEN1 121546Z 30004KT M02/M07 A3016 RMK A01 T10171069  RH  067%=      5-min Rain = 0
KEN1 121547Z 29003KT M02/M07 A3016 RMK A01 T10161068  RH  068%=      5-min Rain = 0
KEN1 121548Z 29003KT M02/M07 A3016 RMK A01 T10151067  RH  068%=      5-min Rain = 0
KEN1 121549Z 27003KT M02/M07 A3016 RMK A01 T10151068  RH  067%=      5-min Rain = 0
KEN1 121550Z 30004KT M01/M07 A3016 RMK A01 T10141066  RH  067%=      5-min Rain = 0
KEN1 121551Z 30004KT M01/M07 A3016 RMK A01 T10131066  RH  067%=      5-min Rain = 0
KEN1 121552Z 28004KT M01/M07 A3016 RMK A01 T10121066  RH  067%=      5-min Rain = 0
KEN1 121553Z 29004KT M01/M07 A3016 RMK A01 T10121065  RH  067%=      5-min Rain = 0
KEN1 121554Z 29004KT M01/M07 A3016 RMK A01 T10111067  RH  066%=      5-min Rain = 0
KEN1 121555Z 30003KT M01/M07 A3016 RMK A01 T10111067  RH  066%=      5-min Rain = 0
KEN1 121556Z 28003KT M01/M07 A3016 RMK A01 T10101066  RH  066%=      5-min Rain = 0
KEN1 121557Z 29003KT M01/M07 A3016 RMK A01 T10091066  RH  066%=      5-min Rain = 0
KEN1 121558Z 29003KT M01/M07 A3016 RMK A01 T10081066  RH  065%=      5-min Rain = 0
KEN1 121559Z 30004KT M01/M07 A3016 RMK A01 T10071066  RH  064%=      5-min Rain = 0
KEN1 121600Z 30003KT M01/M07 A3016 RMK A01 T10071067  RH  064%=      5-min Rain = 0
KEN1 121601Z 30001KT M01/M07 A3016 RMK A01 T10071068  RH  063%=      5-min Rain = 0
KEN1 121602Z 29001KT M01/M07 A3016 RMK A01 T10071067  RH  064%=      5-min Rain = 0
KEN1 121603Z 31001KT M01/M07 A3016 RMK A01 T10061067  RH  063%=      5-min Rain = 0
KEN1 121604Z 32003KT M00/M07 A3016 RMK A01 T10041066  RH  063%=      5-min Rain = 0
KEN1 121605Z 30003KT M00/M06 A3016 RMK A01 T10031064  RH  063%=      5-min Rain = 0
KEN1 121606Z 27002KT M00/M07 A3016 RMK A01 T10031067  RH  062%=      5-min Rain = 0
KEN1 121607Z 27002KT M00/M07 A3016 RMK A01 T10031067  RH  062%=      5-min Rain = 0
KEN1 121608Z 29002KT M00/M07 A3016 RMK A01 T10031066  RH  063%=      5-min Rain = 0
KEN1 121609Z 30002KT M00/M07 A3016 RMK A01 T10021065  RH  063%=      5-min Rain = 0
KEN1 121610Z 31002KT M00/M07 A3016 RMK A01 T10021066  RH  062%=      5-min Rain = 0
KEN1 121611Z 30002KT M00/M07 A3016 RMK A01 T10021065  RH  062%=      5-min Rain = 0
KEN1 121612Z 28001KT M00/M07 A3016 RMK A01 T10011066  RH  062%=      5-min Rain = 0
KEN1 121613Z 27001KT 00/07 A3016 RMK A01 T00-00-66  RH  061%=      5-min Rain = 0
KEN1 121614Z 29001KT 00/07 A3016 RMK A01 T00-00-67  RH  061%=      5-min Rain = 0
KEN1 121615Z 33000KT 00/07 A3016 RMK A01 T00000-66  RH  061%=      5-min Rain = 0
KEN1 121616Z 21001KT 00/M06 A3016 RMK A01 T00021064  RH  061%=      5-min Rain = 0
KEN1 121617Z 23002KT 01/M06 A3016 RMK A01 T00051063  RH  060%=      5-min Rain = 0
KEN1 121618Z 24002KT 01/M06 A3016 RMK A01 T00051064  RH  060%=      5-min Rain = 0
KEN1 121619Z 21001KT 00/M07 A3016 RMK A01 T00041065  RH  060%=      5-min Rain = 0
KEN1 121620Z 21002KT 00/M06 A3016 RMK A01 T00041064  RH  060%=      5-min Rain = 0
KEN1 121621Z 28002KT 01/M06 A3016 RMK A01 T00051062  RH  060%=      5-min Rain = 0
KEN1 121622Z 26001KT 01/M06 A3016 RMK A01 T00061062  RH  060%=      5-min Rain = 0
KEN1 121623Z 26001KT 01/M06 A3016 RMK A01 T00061063  RH  060%=      5-min Rain = 0
KEN1 121624Z 28002KT 01/M06 A3016 RMK A01 T00061064  RH  059%=      5-min Rain = 0
KEN1 121625Z 28001KT 01/M06 A3016 RMK A01 T00061064  RH  060%=      5-min Rain = 0
KEN1 121626Z 20002KT 01/M06 A3016 RMK A01 T00071062  RH  060%=      5-min Rain = 0
KEN1 121627Z 21003KT 01/M06 A3016 RMK A01 T00081062  RH  059%=      5-min Rain = 0
KEN1 121628Z 21002KT 01/M06 A3016 RMK A01 T00091062  RH  059%=      5-min Rain = 0
KEN1 121629Z 19003KT 01/M06 A3016 RMK A01 T00091063  RH  059%=      5-min Rain = 0
KEN1 121630Z 20004KT 01/M06 A3015 RMK A01 T00091062  RH  059%=      5-min Rain = 0
KEN1 121631Z 21003KT 01/M06 A3015 RMK A01 T00101061  RH  059%=      5-min Rain = 0
KEN1 121632Z 21003KT 01/M06 A3015 RMK A01 T00101062  RH  059%=      5-min Rain = 0
KEN1 121633Z 19002KT 01/M06 A3015 RMK A01 T00091063  RH  058%=      5-min Rain = 0
KEN1 121634Z 18004KT 01/M06 A3015 RMK A01 T00101061  RH  059%=      5-min Rain = 0
KEN1 121635Z 14002KT 01/M06 A3015 RMK A01 T00121059  RH  059%=      5-min Rain = 0
KEN1 121636Z 17002KT 01/M06 A3015 RMK A01 T00131058  RH  059%=      5-min Rain = 0
KEN1 121637Z 18002KT 02/M06 A3015 RMK A01 T00151060  RH  058%=      5-min Rain = 0
KEN1 121638Z 17004KT 02/M06 A3015 RMK A01 T00161059  RH  057%=      5-min Rain = 0
KEN1 121639Z 19004KT 02/M06 A3015 RMK A01 T00161059  RH  057%=      5-min Rain = 0
KEN1 121640Z 16005KT 02/M06 A3015 RMK A01 T00161058  RH  058%=      5-min Rain = 0
KEN1 121641Z 15003KT 02/M06 A3015 RMK A01 T00171059  RH  057%=      5-min Rain = 0
KEN1 121642Z 16003KT 02/M06 A3015 RMK A01 T00171061  RH  056%=      5-min Rain = 0
KEN1 121643Z 16005KT 02/M06 A3015 RMK A01 T00181060  RH  056%=      5-min Rain = 0
KEN1 121644Z 17004KT 02/M06 A3015 RMK A01 T00171061  RH  056%=      5-min Rain = 0
KEN1 121645Z 19003KT 02/M06 A3015 RMK A01 T00171060  RH  057%=      5-min Rain = 0
KEN1 121646Z 19003KT 02/M06 A3015 RMK A01 T00171059  RH  057%=      5-min Rain = 0
KEN1 121647Z 20002KT 02/M06 A3015 RMK A01 T00181060  RH  056%=      5-min Rain = 0
KEN1 121648Z 20002KT 02/M06 A3015 RMK A01 T00181060  RH  056%=      5-min Rain = 0
KEN1 121649Z 19003KT 02/M06 A3015 RMK A01 T00181060  RH  056%=      5-min Rain = 0
KEN1 121650Z 18002KT 02/M06 A3015 RMK A01 T00181060  RH  056%=      5-min Rain = 0
KEN1 121651Z 22004KT 02/M06 A3015 RMK A01 T00191059  RH  056%=      5-min Rain = 0
KEN1 121652Z 22003KT 02/M06 A3015 RMK A01 T00191059  RH  056%=      5-min Rain = 0
KEN1 121653Z 21003KT 02/M06 A3015 RMK A01 T00191059  RH  056%=      5-min Rain = 0
KEN1 121654Z 21004KT 02/M06 A3015 RMK A01 T00201058  RH  056%=      5-min Rain = 0
KEN1 121655Z 22004KT 02/M06 A3015 RMK A01 T00221057  RH  056%=      5-min Rain = 0
KEN1 121656Z 22003KT 02/M06 A3015 RMK A01 T00231058  RH  055%=      5-min Rain = 0
KEN1 121657Z 24004KT 02/M06 A3015 RMK A01 T00221058  RH  055%=      5-min Rain = 0
KEN1 121658Z 24003KT 02/M06 A3015 RMK A01 T00211061  RH  055%=      5-min Rain = 0
KEN1 121659Z 22002KT 02/M06 A3015 RMK A01 T00201061  RH  055%=      5-min Rain = 0
KEN1 121700Z 20003KT 02/M06 A3015 RMK A01 T00201060  RH  055%=      5-min Rain = 0
KEN1 121701Z 19005KT 02/M06 A3015 RMK A01 T00221059  RH  055%=      5-min Rain = 0
KEN1 121702Z 21003KT 02/M06 A3015 RMK A01 T00221059  RH  055%=      5-min Rain = 0
KEN1 121703Z 21002KT 02/M06 A3015 RMK A01 T00221059  RH  055%=      5-min Rain = 0
KEN1 121704Z 14000KT 02/M06 A3015 RMK A01 T00221060  RH  055%=      5-min Rain = 0
KEN1 121705Z 13001KT 02/M06 A3015 RMK A01 T00231060  RH  054%=      5-min Rain = 0
KEN1 121706Z 12001KT 03/M06 A3015 RMK A01 T00251058  RH  054%=      5-min Rain = 0
KEN1 121707Z 09000KT 03/M06 A3015 RMK A01 T00271058  RH  053%=      5-min Rain = 0
KEN1 121708Z 14001KT 03/M06 A3015 RMK A01 T00301057  RH  053%=      5-min Rain = 0
KEN1 121709Z 15002KT 03/M06 A3015 RMK A01 T00321055  RH  053%=      5-min Rain = 0
KEN1 121710Z 19002KT 03/M06 A3015 RMK A01 T00331056  RH  052%=      5-min Rain = 0
KEN1 121711Z 20003KT 03/M06 A3015 RMK A01 T00341056  RH  052%=      5-min Rain = 0
KEN1 121712Z 20004KT 03/M06 A3015 RMK A01 T00331055  RH  052%=      5-min Rain = 0
KEN1 121713Z 20004KT 03/M06 A3015 RMK A01 T00321057  RH  052%=      5-min Rain = 0
KEN1 121714Z 18004KT 03/M06 A3014 RMK A01 T00291058  RH  053%=      5-min Rain = 0
KEN1 121715Z 19003KT 03/M06 A3014 RMK A01 T00291058  RH  053%=      5-min Rain = 0
KEN1 121716Z 19002KT 03/M06 A3014 RMK A01 T00281058  RH  053%=      5-min Rain = 0
KEN1 121717Z 18002KT 03/M06 A3014 RMK A01 T00281058  RH  053%=      5-min Rain = 0
KEN1 121718Z 19005KT 03/M06 A3014 RMK A01 T00291057  RH  053%=      5-min Rain = 0
KEN1 121719Z 22005KT 03/M06 A3014 RMK A01 T00301056  RH  053%=      5-min Rain = 0
KEN1 121720Z 23003KT 03/M06 A3014 RMK A01 T00301056  RH  053%=      5-min Rain = 0
KEN1 121721Z 20004KT 03/M06 A3014 RMK A01 T00301057  RH  053%=      5-min Rain = 0
KEN1 121722Z 21005KT 03/M06 A3014 RMK A01 T00301057  RH  053%=      5-min Rain = 0
KEN1 121723Z 21004KT 03/M06 A3014 RMK A01 T00301058  RH  052%=      5-min Rain = 0
KEN1 121724Z 24003KT 03/M06 A3014 RMK A01 T00301057  RH  053%=      5-min Rain = 0
KEN1 121725Z 26004KT 03/M06 A3015 RMK A01 T00311056  RH  053%=      5-min Rain = 0
KEN1 121726Z 23006KT 03/M05 A3014 RMK A01 T00321054  RH  053%=      5-min Rain = 0
KEN1 121727Z 20004KT 03/M06 A3014 RMK A01 T00331055  RH  052%=      5-min Rain = 0
KEN1 121728Z 20001KT 03/M06 A3014 RMK A01 T00331055  RH  052%=      5-min Rain = 0
KEN1 121729Z 23002KT 04/M05 A3014 RMK A01 T00351054  RH  052%=      5-min Rain = 0
KEN1 121730Z 21004KT 04/M06 A3014 RMK A01 T00361055  RH  051%=      5-min Rain = 0
KEN1 121731Z 20005KT 04/M06 A3013 RMK A01 T00361057  RH  051%=      5-min Rain = 0
KEN1 121732Z 24005KT 04/M06 A3014 RMK A01 T00361058  RH  050%=      5-min Rain = 0
KEN1 121733Z 21002KT 04/M06 A3014 RMK A01 T00351059  RH  050%=      5-min Rain = 0
KEN1 121734Z 21003KT 04/M06 A3014 RMK A01 T00351057  RH  051%=      5-min Rain = 0
KEN1 121735Z 20003KT 04/M06 A3014 RMK A01 T00361057  RH  051%=      5-min Rain = 0
KEN1 121736Z 21002KT 04/M06 A3014 RMK A01 T00361057  RH  051%=      5-min Rain = 0
KEN1 121737Z 21003KT 04/M06 A3013 RMK A01 T00371057  RH  050%=      5-min Rain = 0
KEN1 121738Z 19004KT 04/M06 A3013 RMK A01 T00381057  RH  050%=      5-min Rain = 0
KEN1 121739Z 23004KT 04/M06 A3013 RMK A01 T00391056  RH  050%=      5-min Rain = 0
KEN1 121740Z 24002KT 04/M06 A3013 RMK A01 T00391057  RH  050%=      5-min Rain = 0
KEN1 121741Z 23003KT 04/M06 A3013 RMK A01 T00381057  RH  050%=      5-min Rain = 0
KEN1 121742Z 22003KT 04/M06 A3013 RMK A01 T00371058  RH  050%=      5-min Rain = 0
KEN1 121743Z 19003KT 04/M06 A3013 RMK A01 T00381057  RH  050%=      5-min Rain = 0
KEN1 121744Z 16002KT 04/M06 A3013 RMK A01 T00391055  RH  050%=      5-min Rain = 0
KEN1 121745Z 14002KT 04/M06 A3013 RMK A01 T00411055  RH  050%=      5-min Rain = 0
KEN1 121746Z 16004KT 04/M06 A3013 RMK A01 T00431055  RH  049%=      5-min Rain = 0
KEN1 121747Z 15002KT 04/M06 A3013 RMK A01 T00431055  RH  049%=      5-min Rain = 0
KEN1 121748Z 19001KT 04/M06 A3012 RMK A01 T00431056  RH  049%=      5-min Rain = 0
KEN1 121749Z 17003KT 04/M05 A3012 RMK A01 T00441054  RH  049%=      5-min Rain = 0
KEN1 121750Z 19003KT 05/M06 A3012 RMK A01 T00451055  RH  048%=      5-min Rain = 0
KEN1 121751Z 22004KT 05/M06 A3012 RMK A01 T00461055  RH  048%=      5-min Rain = 0
KEN1 121752Z 23003KT 05/M06 A3012 RMK A01 T00451057  RH  048%=      5-min Rain = 0
KEN1 121753Z 26002KT 04/M06 A3012 RMK A01 T00431058  RH  048%=      5-min Rain = 0
KEN1 121754Z 19003KT 04/M06 A3012 RMK A01 T00431057  RH  048%=      5-min Rain = 0
KEN1 121755Z 16003KT 04/M06 A3012 RMK A01 T00441057  RH  048%=      5-min Rain = 0
KEN1 121756Z 15004KT 05/M05 A3012 RMK A01 T00471054  RH  048%=      5-min Rain = 0
KEN1 121757Z 16002KT 05/M06 A3012 RMK A01 T00481056  RH  047%=      5-min Rain = 0
KEN1 121758Z 21001KT 05/M06 A3012 RMK A01 T00481055  RH  047%=      5-min Rain = 0
KEN1 121759Z 24004KT 05/M06 A3012 RMK A01 T00491055  RH  047%=      5-min Rain = 0
KEN1 121800Z 21004KT 05/M05 A3012 RMK A01 T00501054  RH  047%=      5-min Rain = 0
KEN1 121801Z 23003KT 05/M05 A3011 RMK A01 T00511054  RH  046%=      5-min Rain = 0
KEN1 121802Z 26004KT 05/M06 A3012 RMK A01 T00511056  RH  046%=      5-min Rain = 0
KEN1 121803Z 25004KT 05/M06 A3012 RMK A01 T00491057  RH  046%=      5-min Rain = 0
KEN1 121804Z 24004KT 05/M06 A3011 RMK A01 T00491058  RH  046%=      5-min Rain = 0
KEN1 121805Z 24002KT 05/M06 A3011 RMK A01 T00491058  RH  046%=      5-min Rain = 0
KEN1 121806Z 22003KT 05/M06 A3011 RMK A01 T00491057  RH  046%=      5-min Rain = 0
KEN1 121807Z 25002KT 05/M06 A3011 RMK A01 T00501056  RH  046%=      5-min Rain = 0
KEN1 121808Z 17001KT 05/M06 A3011 RMK A01 T00521055  RH  046%=      5-min Rain = 0
KEN1 121809Z 22002KT 05/M06 A3011 RMK A01 T00541057  RH  045%=      5-min Rain = 0
KEN1 121810Z 26002KT 06/M06 A3011 RMK A01 T00551055  RH  045%=      5-min Rain = 0
KEN1 121811Z 27003KT 06/M06 A3011 RMK A01 T00561056  RH  045%=      5-min Rain = 0
KEN1 121812Z 17003KT 05/M06 A3011 RMK A01 T00541057  RH  045%=      5-min Rain = 0
KEN1 121813Z 17004KT 05/M06 A3011 RMK A01 T00541055  RH  045%=      5-min Rain = 0
KEN1 121814Z 16003KT 06/M06 A3011 RMK A01 T00551055  RH  045%=      5-min Rain = 0
KEN1 121815Z 18004KT 06/M05 A3011 RMK A01 T00561054  RH  045%=      5-min Rain = 0
KEN1 121816Z 18004KT 06/M05 A3011 RMK A01 T00561054  RH  045%=      5-min Rain = 0
KEN1 121817Z 22004KT 06/M06 A3011 RMK A01 T00561055  RH  044%=      5-min Rain = 0
KEN1 121818Z 23004KT 06/M06 A3011 RMK A01 T00561057  RH  044%=      5-min Rain = 0
KEN1 121819Z 22004KT 06/M06 A301 RMK A01 T00571058  RH  044%=      5-min Rain = 0
KEN1 121820Z 22004KT 06/M06 A301 RMK A01 T00561058  RH  044%=      5-min Rain = 0
KEN1 121821Z 24005KT 06/M06 A301 RMK A01 T00571056  RH  044%=      5-min Rain = 0
KEN1 121822Z 24006KT 06/M06 A301 RMK A01 T00581057  RH  043%=      5-min Rain = 0
KEN1 121823Z 25005KT 06/M06 A301 RMK A01 T00571058  RH  043%=      5-min Rain = 0
KEN1 121824Z 23006KT 06/M06 A301 RMK A01 T00571057  RH  043%=      5-min Rain = 0
KEN1 121825Z 22007KT 06/M06 A301 RMK A01 T00591056  RH  043%=      5-min Rain = 0
KEN1 121826Z 24004KT 06/M06 A301 RMK A01 T00591057  RH  043%=      5-min Rain = 0
KEN1 121827Z 21004KT 06/M06 A301 RMK A01 T00591056  RH  043%=      5-min Rain = 0
KEN1 121828Z 23004KT 06/M06 A301 RMK A01 T00611055  RH  043%=      5-min Rain = 0
KEN1 121829Z 25005KT 06/M05 A301 RMK A01 T00631053  RH  043%=      5-min Rain = 0
KEN1 121830Z 22004KT 06/M05 A301 RMK A01 T00641054  RH  042%=      5-min Rain = 0
KEN1 121831Z 23004KT 06/M06 A301 RMK A01 T00631055  RH  042%=      5-min Rain = 0
KEN1 121832Z 24005KT 06/M05 A3009 RMK A01 T00641053  RH  043%=      5-min Rain = 0
KEN1 121833Z 20004KT 06/M06 A3009 RMK A01 T00641055  RH  042%=      5-min Rain = 0
KEN1 121834Z 20005KT 06/M06 A3009 RMK A01 T00641055  RH  042%=      5-min Rain = 0
KEN1 121835Z 21003KT 06/M06 A3009 RMK A01 T00641055  RH  042%=      5-min Rain = 0
KEN1 121836Z 18003KT 07/M06 A3009 RMK A01 T00651055  RH  042%=      5-min Rain = 0
KEN1 121837Z 18004KT 07/M05 A3009 RMK A01 T00651054  RH  042%=      5-min Rain = 0
KEN1 121838Z 19004KT 07/M05 A3009 RMK A01 T00671053  RH  042%=      5-min Rain = 0
KEN1 121839Z 22004KT 07/M05 A3009 RMK A01 T00681052  RH  042%=      5-min Rain = 0
KEN1 121840Z 20004KT 07/M05 A3009 RMK A01 T00691053  RH  041%=      5-min Rain = 0
KEN1 121841Z 18004KT 07/M05 A3009 RMK A01 T00711051  RH  042%=      5-min Rain = 0
KEN1 121842Z 24002KT 07/M05 A3009 RMK A01 T00721052  RH  041%=      5-min Rain = 0
KEN1 121843Z 28004KT 07/M05 A3009 RMK A01 T00731053  RH  040%=      5-min Rain = 0
KEN1 121844Z 27005KT 07/M05 A3009 RMK A01 T00731054  RH  040%=      5-min Rain = 0
KEN1 121845Z 24004KT 07/M06 A3009 RMK A01 T00721055  RH  040%=      5-min Rain = 0
KEN1 121846Z 22005KT 07/M05 A3008 RMK A01 T00711054  RH  041%=      5-min Rain = 0
KEN1 121847Z 22005KT 07/M05 A3008 RMK A01 T00721054  RH  040%=      5-min Rain = 0
KEN1 121848Z 27005KT 07/M06 A3009 RMK A01 T00721055  RH  040%=      5-min Rain = 0
KEN1 121849Z 28004KT 07/M06 A3009 RMK A01 T00711056  RH  040%=      5-min Rain = 0
KEN1 121850Z 27005KT 07/M06 A3008 RMK A01 T00711056  RH  040%=      5-min Rain = 0
KEN1 121851Z 23003KT 07/M06 A3008 RMK A01 T00711056  RH  040%=      5-min Rain = 0
KEN1 121852Z 22004KT 07/M06 A3008 RMK A01 T00711056  RH  040%=      5-min Rain = 0
KEN1 121853Z 23002KT 07/M06 A3008 RMK A01 T00701056  RH  040%=      5-min Rain = 0
KEN1 121854Z 24004KT 07/M06 A3008 RMK A01 T00711055  RH  040%=      5-min Rain = 0
KEN1 121855Z 26003KT 07/M05 A3008 RMK A01 T00721054  RH  040%=      5-min Rain = 0
KEN1 121856Z 29003KT 07/M05 A3008 RMK A01 T00741052  RH  041%=      5-min Rain = 0
KEN1 121857Z 27004KT 08/M05 A3008 RMK A01 T00751053  RH  040%=      5-min Rain = 0
KEN1 121858Z 21001KT 08/M05 A3008 RMK A01 T00751054  RH  039%=      5-min Rain = 0
KEN1 121859Z 23003KT 08/M05 A3007 RMK A01 T00761054  RH  039%=      5-min Rain = 0
KEN1 121900Z 25003KT 08/M05 A3007 RMK A01 T00781052  RH  039%=      5-min Rain = 0
KEN1 121901Z 29002KT 08/M05 A3008 RMK A01 T00791053  RH  039%=      5-min Rain = 0
KEN1 121902Z 32004KT 08/M05 A3008 RMK A01 T00801050  RH  039%=      5-min Rain = 0
KEN1 121903Z 31005KT 08/M05 A3008 RMK A01 T00821050  RH  039%=      5-min Rain = 0
KEN1 121904Z 31006KT 08/M05 A3008 RMK A01 T00821050  RH  039%=      5-min Rain = 0
KEN1 121905Z 30003KT 08/M05 A3007 RMK A01 T00821053  RH  038%=      5-min Rain = 0
KEN1 121906Z 27002KT 08/M05 A3007 RMK A01 T00811054  RH  038%=      5-min Rain = 0
KEN1 121907Z 29003KT 08/M05 A3007 RMK A01 T00811053  RH  038%=      5-min Rain = 0
KEN1 121908Z 30003KT 08/M05 A3007 RMK A01 T00811053  RH  038%=      5-min Rain = 0
KEN1 121909Z 29001KT 08/M05 A3007 RMK A01 T00801054  RH  038%=      5-min Rain = 0
KEN1 121910Z 28000KT 08/M05 A3007 RMK A01 T00801054  RH  038%=      5-min Rain = 0
KEN1 121911Z 32002KT 08/M05 A3007 RMK A01 T00821051  RH  039%=      5-min Rain = 0
KEN1 121912Z 30003KT 08/M05 A3007 RMK A01 T00831051  RH  038%=      5-min Rain = 0
KEN1 121913Z 29003KT 09/M05 A3007 RMK A01 T00861047  RH  039%=      5-min Rain = 0
KEN1 121914Z 29004KT 09/M05 A3007 RMK A01 T00881048  RH  038%=      5-min Rain = 0
KEN1 121915Z 27004KT 09/M05 A3007 RMK A01 T00891045  RH  038%=      5-min Rain = 0
KEN1 121916Z 26003KT 09/M05 A3007 RMK A01 T00921046  RH  038%=      5-min Rain = 0
KEN1 121917Z 26003KT 09/M05 A3007 RMK A01 T00931047  RH  037%=      5-min Rain = 0
KEN1 121918Z 25002KT 09/M05 A3007 RMK A01 T00921050  RH  036%=      5-min Rain = 0
KEN1 121919Z 25003KT 09/M05 A3007 RMK A01 T00901051  RH  036%=      5-min Rain = 0
KEN1 121920Z 25002KT 09/M05 A3007 RMK A01 T00891051  RH  037%=      5-min Rain = 0
KEN1 121921Z 33002KT 09/M05 A3007 RMK A01 T00891049  RH  037%=      5-min Rain = 0
KEN1 121922Z 31003KT 09/M05 A3006 RMK A01 T00901050  RH  037%=      5-min Rain = 0
KEN1 121923Z 30004KT 09/M05 A3006 RMK A01 T00891051  RH  037%=      5-min Rain = 0
KEN1 121924Z 30004KT 09/M05 A3006 RMK A01 T00901049  RH  037%=      5-min Rain = 0
KEN1 121925Z 27004KT 09/M05 A3006 RMK A01 T00911049  RH  037%=      5-min Rain = 0
KEN1 121926Z 27003KT 09/M05 A3006 RMK A01 T00921049  RH  037%=      5-min Rain = 0
KEN1 121927Z 25001KT 09/M05 A3006 RMK A01 T00941045  RH  037%=      5-min Rain = 0
KEN1 121928Z 30002KT 10/M05 A3006 RMK A01 T00971048  RH  036%=      5-min Rain = 0
KEN1 121929Z 33003KT 10/M05 A3006 RMK A01 T00981049  RH  035%=      5-min Rain = 0
KEN1 121930Z 33003KT 10/M05 A3006 RMK A01 T00951054  RH  035%=      5-min Rain = 0
KEN1 121931Z 34001KT 09/M05 A3006 RMK A01 T00921052  RH  036%=      5-min Rain = 0
KEN1 121932Z 36002KT 09/M05 A3006 RMK A01 T00931051  RH  036%=      5-min Rain = 0
KEN1 121933Z 03002KT 09/M05 A3006 RMK A01 T00941052  RH  035%=      5-min Rain = 0
KEN1 121934Z 35002KT 09/M05 A3006 RMK A01 T00941053  RH  035%=      5-min Rain = 0
KEN1 121935Z 33003KT 09/M05 A3006 RMK A01 T00931052  RH  036%=      5-min Rain = 0
KEN1 121936Z 28006KT 10/M05 A3006 RMK A01 T00961046  RH  037%=      5-min Rain = 0
KEN1 121937Z 28005KT 10/M05 A3006 RMK A01 T00991046  RH  036%=      5-min Rain = 0
KEN1 121938Z 28004KT 10/M05 A3006 RMK A01 T00991050  RH  035%=      5-min Rain = 0
KEN1 121939Z 29004KT 10/M05 A3005 RMK A01 T00971052  RH  034%=      5-min Rain = 0
KEN1 121940Z 29003KT 10/M05 A3005 RMK A01 T00961053  RH  035%=      5-min Rain = 0
KEN1 121941Z 29002KT 10/M05 A3005 RMK A01 T00951052  RH  035%=      5-min Rain = 0
KEN1 121942Z 29003KT 10/M05 A3005 RMK A01 T00961053  RH  035%=      5-min Rain = 0
KEN1 121943Z 27003KT 10/M05 A3005 RMK A01 T00971052  RH  035%=      5-min Rain = 0
KEN1 121944Z 26003KT 10/M05 A3005 RMK A01 T00971052  RH  034%=      5-min Rain = 0
KEN1 121945Z 29002KT 10/M05 A3005 RMK A01 T00981052  RH  034%=      5-min Rain = 0
KEN1 121946Z 27002KT 10/M05 A3005 RMK A01 T00981052  RH  034%=      5-min Rain = 0
KEN1 121947Z 28003KT 10/M05 A3005 RMK A01 T01011047  RH  035%=      5-min Rain = 0
KEN1 121948Z 29005KT 10/M05 A3005 RMK A01 T01031049  RH  034%=      5-min Rain = 0
KEN1 121949Z 26004KT 10/M05 A3005 RMK A01 T01031050  RH  034%=      5-min Rain = 0
KEN1 121950Z 26003KT 10/M05 A3005 RMK A01 T01031051  RH  033%=      5-min Rain = 0
KEN1 121951Z 25002KT 10/M05 A3005 RMK A01 T01021052  RH  033%=      5-min Rain = 0
KEN1 121952Z 27002KT 10/M05 A3004 RMK A01 T01031051  RH  034%=      5-min Rain = 0
KEN1 121953Z 27003KT 11/M05 A3005 RMK A01 T01051048  RH  034%=      5-min Rain = 0
KEN1 121954Z 29004KT 11/M05 A3004 RMK A01 T01071048  RH  033%=      5-min Rain = 0
KEN1 121955Z 30005KT 11/M05 A3004 RMK A01 T01071049  RH  033%=      5-min Rain = 0
KEN1 121956Z 27005KT 11/M05 A3004 RMK A01 T01061049  RH  033%=      5-min Rain = 0
KEN1 121957Z 28004KT 11/M05 A3004 RMK A01 T01071049  RH  033%=      5-min Rain = 0
KEN1 121958Z 29004KT 11/M05 A3004 RMK A01 T01071051  RH  033%=      5-min Rain = 0
KEN1 121959Z 31004KT 11/M05 A3004 RMK A01 T01061051  RH  033%=      5-min Rain = 0
KEN1 122000Z 31004KT 11/M05 A3004 RMK A01 T01061050  RH  033%=      5-min Rain = 0
KEN1 122001Z 30001KT 11/M05 A3004 RMK A01 T01061049  RH  033%=      5-min Rain = 0
KEN1 122002Z 27002KT 11/M05 A3004 RMK A01 T01071049  RH  033%=      5-min Rain = 0
KEN1 122003Z 31001KT 11/M05 A3004 RMK A01 T01081049  RH  033%=      5-min Rain = 0
KEN1 122004Z 01001KT 11/M05 A3004 RMK A01 T01081049  RH  033%=      5-min Rain = 0
KEN1 122005Z 31002KT 11/M05 A3004 RMK A01 T01101047  RH  033%=      5-min Rain = 0
KEN1 122006Z 36002KT 11/M05 A3004 RMK A01 T01121047  RH  032%=      5-min Rain = 0
KEN1 122007Z 32003KT 11/M05 A3004 RMK A01 T01121049  RH  032%=      5-min Rain = 0
KEN1 122008Z 35004KT 11/M05 A3004 RMK A01 T01121048  RH  032%=      5-min Rain = 0
KEN1 122009Z 36003KT 11/M05 A3004 RMK A01 T01131048  RH  032%=      5-min Rain = 0
KEN1 122010Z 36003KT 11/M05 A3004 RMK A01 T01121050  RH  032%=      5-min Rain = 0
KEN1 122011Z 01003KT 11/M05 A3004 RMK A01 T01111051  RH  032%=      5-min Rain = 0
KEN1 122012Z 02002KT 11/M05 A3004 RMK A01 T01111050  RH  032%=      5-min Rain = 0
KEN1 122013Z 04002KT 11/M05 A3004 RMK A01 T01111049  RH  032%=      5-min Rain = 0
KEN1 122014Z 07002KT 11/M05 A3004 RMK A01 T01131049  RH  032%=      5-min Rain = 0
KEN1 122015Z 36002KT 11/M05 A3004 RMK A01 T01131048  RH  032%=      5-min Rain = 0
KEN1 122016Z 33002KT 11/M05 A3004 RMK A01 T01141049  RH  032%=      5-min Rain = 0
KEN1 122017Z 33002KT 12/M05 A3004 RMK A01 T01151048  RH  032%=      5-min Rain = 0
KEN1 122018Z 31002KT 12/M05 A3004 RMK A01 T01161050  RH  031%=      5-min Rain = 0
KEN1 122019Z 35001KT 12/M05 A3004 RMK A01 T01161052  RH  031%=      5-min Rain = 0
KEN1 122020Z 26001KT 12/M05 A3004 RMK A01 T01171049  RH  031%=      5-min Rain = 0
KEN1 122021Z 25001KT 12/M05 A3004 RMK A01 T01201047  RH  031%=      5-min Rain = 0
KEN1 122022Z 27002KT 12/M05 A3004 RMK A01 T01221047  RH  030%=      5-min Rain = 0
KEN1 122023Z 27003KT 12/M05 A3004 RMK A01 T01231048  RH  030%=      5-min Rain = 0
KEN1 122024Z 26003KT 12/M05 A3004 RMK A01 T01241048  RH  030%=      5-min Rain = 0
KEN1 122025Z 24002KT 12/M05 A3004 RMK A01 T01241048  RH  030%=      5-min Rain = 0
KEN1 122026Z 25003KT 12/M05 A3004 RMK A01 T01241048  RH  030%=      5-min Rain = 0
KEN1 122027Z 25001KT 13/M05 A3004 RMK A01 T01251048  RH  030%=      5-min Rain = 0
KEN1 122028Z 24001KT 13/M05 A3003 RMK A01 T01271048  RH  029%=      5-min Rain = 0
KEN1 122029Z 33001KT 13/M05 A3003 RMK A01 T01291048  RH  029%=      5-min Rain = 0
KEN1 122030Z 33003KT 13/M05 A3004 RMK A01 T01311050  RH  028%=      5-min Rain = 0
KEN1 122031Z 32005KT 13/M05 A3004 RMK A01 T01301051  RH  028%=      5-min Rain = 0
KEN1 122032Z 32004KT 13/M05 A3004 RMK A01 T01301050  RH  028%=      5-min Rain = 0
KEN1 122033Z 31005KT 13/M05 A3004 RMK A01 T01301048  RH  029%=      5-min Rain = 0
KEN1 122034Z 32004KT 13/M05 A3004 RMK A01 T01311047  RH  029%=      5-min Rain = 0
KEN1 122035Z 28002KT 13/M05 A3004 RMK A01 T01301049  RH  028%=      5-min Rain = 0
KEN1 122036Z 24001KT 13/M05 A3003 RMK A01 T01301050  RH  028%=      5-min Rain = 0
KEN1 122037Z 03000KT 13/M05 A3003 RMK A01 T01301052  RH  028%=      5-min Rain = 0
KEN1 122038Z 26000KT 13/M05 A3004 RMK A01 T01311051  RH  028%=      5-min Rain = 0
KEN1 122039Z 26002KT 13/M05 A3004 RMK A01 T01321052  RH  027%=      5-min Rain = 0
KEN1 122040Z 29001KT 13/M05 A3004 RMK A01 T01331053  RH  027%=      5-min Rain = 0
KEN1 122041Z 32003KT 13/M05 A3004 RMK A01 T01331049  RH  028%=      5-min Rain = 0
KEN1 122042Z 35003KT 13/M05 A3004 RMK A01 T01341046  RH  028%=      5-min Rain = 0
KEN1 122043Z 33005KT 14/M05 A3004 RMK A01 T01351046  RH  028%=      5-min Rain = 0
KEN1 122044Z 31004KT 14/M05 A3004 RMK A01 T01351048  RH  028%=      5-min Rain = 0
KEN1 122045Z 31003KT 14/M05 A3004 RMK A01 T01351047  RH  028%=      5-min Rain = 0
KEN1 122046Z 30003KT 13/M05 A3004 RMK A01 T01341051  RH  027%=      5-min Rain = 0
KEN1 122047Z 33004KT 13/M05 A3004 RMK A01 T01341051  RH  027%=      5-min Rain = 0
KEN1 122048Z 34003KT 13/M05 A3004 RMK A01 T01331052  RH  027%=      5-min Rain = 0
KEN1 122049Z 33004KT 13/M05 A3003 RMK A01 T01331050  RH  027%=      5-min Rain = 0
KEN1 122050Z 33003KT 13/M05 A3003 RMK A01 T01331050  RH  028%=      5-min Rain = 0
KEN1 122051Z 34004KT 13/M05 A3003 RMK A01 T01331048  RH  028%=      5-min Rain = 0
KEN1 122052Z 34003KT 13/M05 A3003 RMK A01 T01331049  RH  028%=      5-min Rain = 0
KEN1 122053Z 33001KT 13/M05 A3003 RMK A01 T01331049  RH  028%=      5-min Rain = 0
KEN1 122054Z 33002KT 13/M05 A3003 RMK A01 T01331049  RH  028%=      5-min Rain = 0
KEN1 122055Z 35004KT 13/M05 A3003 RMK A01 T01341048  RH  028%=      5-min Rain = 0
KEN1 122056Z 35003KT 13/M05 A3003 RMK A01 T01341050  RH  027%=      5-min Rain = 0
KEN1 122057Z 35003KT 13/M05 A3003 RMK A01 T01331050  RH  028%=      5-min Rain = 0
KEN1 122058Z 34002KT 13/M05 A3003 RMK A01 T01331050  RH  028%=      5-min Rain = 0
KEN1 122059Z 27003KT 14/M05 A3003 RMK A01 T01351049  RH  028%=      5-min Rain = 0
KEN1 122100Z 25002KT 14/M05 A3003 RMK A01 T01361049  RH  027%=      5-min Rain = 0
KEN1 122101Z 25002KT 14/M05 A3003 RMK A01 T01371050  RH  027%=      5-min Rain = 0
KEN1 122102Z 22003KT 14/M05 A3003 RMK A01 T01371050  RH  027%=      5-min Rain = 0
KEN1 122103Z 23002KT 14/M05 A3003 RMK A01 T01371050  RH  027%=      5-min Rain = 0
KEN1 122104Z 20001KT 14/M05 A3003 RMK A01 T01381051  RH  027%=      5-min Rain = 0
KEN1 122105Z 14000KT 14/M05 A3003 RMK A01 T01381051  RH  027%=      5-min Rain = 0
KEN1 122106Z 30001KT 14/M05 A3003 RMK A01 T01401050  RH  026%=      5-min Rain = 0
KEN1 122107Z 28004KT 14/M05 A3003 RMK A01 T01421048  RH  026%=      5-min Rain = 0
KEN1 122108Z 28002KT 14/M05 A3003 RMK A01 T01431052  RH  026%=      5-min Rain = 0
KEN1 122109Z 29004KT 14/M05 A3003 RMK A01 T01431051  RH  026%=      5-min Rain = 0
KEN1 122110Z 28005KT 14/M05 A3003 RMK A01 T01431052  RH  025%=      5-min Rain = 0
KEN1 122111Z 28004KT 14/M05 A3003 RMK A01 T01431054  RH  025%=      5-min Rain = 0
KEN1 122112Z 27004KT 14/M05 A3003 RMK A01 T01431054  RH  025%=      5-min Rain = 0
KEN1 122113Z 29004KT 14/M05 A3003 RMK A01 T01441051  RH  026%=      5-min Rain = 0
KEN1 122114Z 26005KT 15/M05 A3003 RMK A01 T01451050  RH  026%=      5-min Rain = 0
KEN1 122115Z 26004KT 15/M05 A3003 RMK A01 T01461050  RH  025%=      5-min Rain = 0
KEN1 122116Z 25005KT 15/M05 A3003 RMK A01 T01451051  RH  025%=      5-min Rain = 0
KEN1 122117Z 26005KT 15/M05 A3003 RMK A01 T01451051  RH  025%=      5-min Rain = 0
KEN1 122118Z 26004KT 15/M05 A3003 RMK A01 T01461052  RH  025%=      5-min Rain = 0
KEN1 122119Z 27003KT 15/M05 A3003 RMK A01 T01451053  RH  025%=      5-min Rain = 0
KEN1 122120Z 30004KT 15/M05 A3003 RMK A01 T01451051  RH  025%=      5-min Rain = 0
KEN1 122121Z 31005KT 15/M05 A3003 RMK A01 T01461052  RH  025%=      5-min Rain = 0
KEN1 122122Z 32004KT 14/M05 A3003 RMK A01 T01441054  RH  025%=      5-min Rain = 0
KEN1 122123Z 31004KT 14/M05 A3003 RMK A01 T01431053  RH  025%=      5-min Rain = 0
KEN1 122124Z 31002KT 14/M05 A3003 RMK A01 T01431053  RH  025%=      5-min Rain = 0
KEN1 122125Z 27002KT 14/M05 A3003 RMK A01 T01441053  RH  025%=      5-min Rain = 0
KEN1 122126Z 25003KT 15/M05 A3003 RMK A01 T01471050  RH  025%=      5-min Rain = 0
KEN1 122127Z 23001KT 15/M05 A3003 RMK A01 T01471052  RH  025%=      5-min Rain = 0
KEN1 122128Z 25001KT 15/M05 A3003 RMK A01 T01491051  RH  025%=      5-min Rain = 0
KEN1 122129Z 25002KT 15/M05 A3003 RMK A01 T01501051  RH  025%=      5-min Rain = 0
KEN1 122130Z 28003KT 15/M05 A3003 RMK A01 T01511051  RH  025%=      5-min Rain = 0
KEN1 122131Z 27005KT 15/M05 A3003 RMK A01 T01531047  RH  025%=      5-min Rain = 0
KEN1 122132Z 26004KT 15/M05 A3003 RMK A01 T01531052  RH  024%=      5-min Rain = 0
KEN1 122133Z 25004KT 15/M05 A3003 RMK A01 T01511054  RH  024%=      5-min Rain = 0
KEN1 122134Z 24003KT 15/M05 A3003 RMK A01 T01511054  RH  024%=      5-min Rain = 0
KEN1 122135Z 24003KT 15/M06 A3003 RMK A01 T01511056  RH  023%=      5-min Rain = 0
KEN1 122136Z 23003KT 15/M06 A3003 RMK A01 T01511056  RH  024%=      5-min Rain = 0
KEN1 122137Z 25004KT 15/M05 A3003 RMK A01 T01521054  RH  024%=      5-min Rain = 0
KEN1 122138Z 24003KT 15/M06 A3003 RMK A01 T01521056  RH  023%=      5-min Rain = 0
KEN1 122139Z 24003KT 15/M06 A3003 RMK A01 T01531056  RH  023%=      5-min Rain = 0
KEN1 122140Z 25001KT 15/M06 A3003 RMK A01 T01531057  RH  023%=      5-min Rain = 0
KEN1 122141Z 24002KT 15/M06 A3003 RMK A01 T01541056  RH  023%=      5-min Rain = 0
KEN1 122142Z 23004KT 16/M05 A3003 RMK A01 T01551054  RH  023%=      5-min Rain = 0
KEN1 122143Z 24003KT 16/M05 A3003 RMK A01 T01551054  RH  023%=      5-min Rain = 0
KEN1 122144Z 25002KT 16/M05 A3003 RMK A01 T01551054  RH  023%=      5-min Rain = 0
KEN1 122145Z 26002KT 16/M05 A3003 RMK A01 T01551053  RH  023%=      5-min Rain = 0
KEN1 122146Z 24004KT 16/M05 A3003 RMK A01 T01561051  RH  024%=      5-min Rain = 0
KEN1 122147Z 25004KT 16/M06 A3003 RMK A01 T01571057  RH  022%=      5-min Rain = 0
KEN1 122148Z 25004KT 16/M06 A3003 RMK A01 T01561058  RH  022%=      5-min Rain = 0
KEN1 122149Z 25003KT 16/M06 A3003 RMK A01 T01561056  RH  023%=      5-min Rain = 0
KEN1 122150Z 25002KT 16/M06 A3003 RMK A01 T01571056  RH  023%=      5-min Rain = 0
KEN1 122151Z 25003KT 16/M05 A3003 RMK A01 T01581053  RH  023%=      5-min Rain = 0
KEN1 122152Z 27004KT 16/M06 A3003 RMK A01 T01581057  RH  022%=      5-min Rain = 0
KEN1 122153Z 28005KT 16/M06 A3003 RMK A01 T01581059  RH  022%=      5-min Rain = 0
KEN1 122154Z 27005KT 16/M06 A3003 RMK A01 T01571059  RH  022%=      5-min Rain = 0
KEN1 122155Z 25006KT 16/M06 A3003 RMK A01 T01571057  RH  022%=      5-min Rain = 0
KEN1 122156Z 24006KT 16/M06 A3003 RMK A01 T01581057  RH  022%=      5-min Rain = 0
KEN1 122157Z 25005KT 16/M06 A3003 RMK A01 T01571059  RH  022%=      5-min Rain = 0
KEN1 122158Z 26005KT 16/M06 A3003 RMK A01 T01571057  RH  022%=      5-min Rain = 0
KEN1 122159Z 26005KT 16/M06 A3004 RMK A01 T01581056  RH  023%=      5-min Rain = 0
KEN1 122200Z 27002KT 16/M06 A3004 RMK A01 T01581057  RH  022%=      5-min Rain = 0
KEN1 122201Z 25003KT 16/M06 A3004 RMK A01 T01581057  RH  022%=      5-min Rain = 0
KEN1 122202Z 25003KT 16/M06 A3004 RMK A01 T01601056  RH  022%=      5-min Rain = 0
KEN1 122203Z 24004KT 16/M06 A3004 RMK A01 T01601060  RH  021%=      5-min Rain = 0
KEN1 122204Z 25006KT 16/M06 A3004 RMK A01 T01601063  RH  021%=      5-min Rain = 0
KEN1 122205Z 26005KT 16/M06 A3004 RMK A01 T01601064  RH  021%=      5-min Rain = 0
KEN1 122206Z 27005KT 16/M06 A3004 RMK A01 T01601064  RH  021%=      5-min Rain = 0
KEN1 122207Z 26006KT 16/M06 A3004 RMK A01 T01591062  RH  021%=      5-min Rain = 0
KEN1 122208Z 25006KT 16/M06 A3004 RMK A01 T01581061  RH  022%=      5-min Rain = 0
KEN1 122209Z 26005KT 16/M06 A3004 RMK A01 T01571062  RH  022%=      5-min Rain = 0
KEN1 122210Z 28004KT 16/M06 A3004 RMK A01 T01561061  RH  022%=      5-min Rain = 0
KEN1 122211Z 29005KT 16/M06 A3004 RMK A01 T01581062  RH  022%=      5-min Rain = 0
KEN1 122212Z 30004KT 16/M07 A3004 RMK A01 T01591065  RH  021%=      5-min Rain = 0
KEN1 122213Z 28003KT 16/M06 A3004 RMK A01 T01601063  RH  021%=      5-min Rain = 0
KEN1 122214Z 27004KT 16/M06 A3004 RMK A01 T01621062  RH  021%=      5-min Rain = 0
KEN1 122215Z 26003KT 16/M06 A3004 RMK A01 T01631063  RH  021%=      5-min Rain = 0
KEN1 122216Z 24002KT 16/M06 A3004 RMK A01 T01621064  RH  021%=      5-min Rain = 0
KEN1 122217Z 25002KT 16/M06 A3004 RMK A01 T01611063  RH  021%=      5-min Rain = 0
KEN1 122218Z 25002KT 16/M06 A3004 RMK A01 T01601062  RH  021%=      5-min Rain = 0
KEN1 122219Z 26006KT 16/M06 A3004 RMK A01 T01581063  RH  021%=      5-min Rain = 0
KEN1 122220Z 26006KT 16/M07 A3004 RMK A01 T01571065  RH  021%=      5-min Rain = 0
KEN1 122221Z 26004KT 16/M07 A3004 RMK A01 T01561068  RH  021%=      5-min Rain = 0
KEN1 122222Z 27004KT 15/M07 A3004 RMK A01 T01541068  RH  021%=      5-min Rain = 0
KEN1 122223Z 27006KT 15/M06 A3004 RMK A01 T01541064  RH  022%=      5-min Rain = 0
KEN1 122224Z 27005KT 15/M07 A3004 RMK A01 T01531065  RH  022%=      5-min Rain = 0
KEN1 122225Z 27004KT 15/M07 A3004 RMK A01 T01511065  RH  022%=      5-min Rain = 0
KEN1 122226Z 27003KT 15/M07 A3004 RMK A01 T01511068  RH  022%=      5-min Rain = 0
KEN1 122227Z 29002KT 15/M07 A3004 RMK A01 T01511069  RH  021%=      5-min Rain = 0
KEN1 122228Z 29002KT 15/M07 A3004 RMK A01 T01511066  RH  022%=      5-min Rain = 0
KEN1 122229Z 30003KT 15/M06 A3004 RMK A01 T01501062  RH  023%=      5-min Rain = 0
KEN1 122230Z 29003KT 15/M06 A3004 RMK A01 T01491062  RH  023%=      5-min Rain = 0
KEN1 122231Z 30003KT 15/M07 A3004 RMK A01 T01481066  RH  022%=      5-min Rain = 0
KEN1 122232Z 28003KT 15/M07 A3004 RMK A01 T01491067  RH  022%=      5-min Rain = 0
KEN1 122233Z 25003KT 15/M06 A3004 RMK A01 T01491063  RH  023%=      5-min Rain = 0
KEN1 122234Z 27003KT 15/M06 A3004 RMK A01 T01481063  RH  023%=      5-min Rain = 0
KEN1 122235Z 26003KT 15/M06 A3004 RMK A01 T01481061  RH  023%=      5-min Rain = 0
KEN1 122236Z 28003KT 15/M06 A3004 RMK A01 T01471061  RH  023%=      5-min Rain = 0
KEN1 122237Z 28004KT 15/M06 A3004 RMK A01 T01461063  RH  023%=      5-min Rain = 0
KEN1 122238Z 29003KT 15/M07 A3004 RMK A01 T01451067  RH  022%=      5-min Rain = 0
KEN1 122239Z 28003KT 15/M06 A3004 RMK A01 T01451063  RH  023%=      5-min Rain = 0
KEN1 122240Z 26003KT 15/M06 A3004 RMK A01 T01451062  RH  023%=      5-min Rain = 0
KEN1 122241Z 25002KT 15/M07 A3004 RMK A01 T01451067  RH  022%=      5-min Rain = 0
KEN1 122242Z 26003KT 15/M06 A3004 RMK A01 T01451064  RH  023%=      5-min Rain = 0
KEN1 122243Z 24003KT 15/M06 A3004 RMK A01 T01451061  RH  023%=      5-min Rain = 0
KEN1 122244Z 24003KT 15/M06 A3004 RMK A01 T01461061  RH  023%=      5-min Rain = 0
KEN1 122245Z 24003KT 15/M06 A3004 RMK A01 T01461058  RH  024%=      5-min Rain = 0
KEN1 122246Z 24003KT 15/M06 A3004 RMK A01 T01471058  RH  024%=      5-min Rain = 0
KEN1 122247Z 24004KT 15/M06 A3004 RMK A01 T01491060  RH  023%=      5-min Rain = 0
KEN1 122248Z 24003KT 15/M06 A3004 RMK A01 T01511061  RH  023%=      5-min Rain = 0
KEN1 122249Z 24003KT 15/M06 A3004 RMK A01 T01531061  RH  022%=      5-min Rain = 0
KEN1 122250Z 23003KT 15/M06 A3004 RMK A01 T01541059  RH  023%=      5-min Rain = 0
KEN1 122251Z 23003KT 16/M06 A3004 RMK A01 T01561059  RH  022%=      5-min Rain = 0
KEN1 122252Z 23003KT 16/M06 A3004 RMK A01 T01581064  RH  021%=      5-min Rain = 0
KEN1 122253Z 22003KT 16/M07 A3005 RMK A01 T01591068  RH  020%=      5-min Rain = 0
KEN1 122254Z 22002KT 16/M07 A3005 RMK A01 T01611070  RH  020%=      5-min Rain = 0
KEN1 122255Z 22002KT 16/M07 A3005 RMK A01 T01611067  RH  020%=      5-min Rain = 0
KEN1 122256Z 22002KT 16/M07 A3005 RMK A01 T01621068  RH  020%=      5-min Rain = 0
KEN1 122257Z 22003KT 16/M07 A3005 RMK A01 T01621069  RH  020%=      5-min Rain = 0
KEN1 122258Z 22002KT 16/M07 A3005 RMK A01 T01621071  RH  020%=      5-min Rain = 0
KEN1 122259Z 23002KT 16/M07 A3005 RMK A01 T01621070  RH  020%=      5-min Rain = 0
KEN1 122300Z 23001KT 16/M07 A3005 RMK A01 T01621069  RH  020%=      5-min Rain = 0
KEN1 122301Z 25000KT 16/M07 A3005 RMK A01 T01631072  RH  019%=      5-min Rain = 0
KEN1 122302Z 00000KT 16/M07 A3005 RMK A01 T01641071  RH  019%=      5-min Rain = 0
KEN1 122303Z 15000KT 16/M07 A3005 RMK A01 T01641068  RH  020%=      5-min Rain = 0
KEN1 122304Z 15001KT 16/M07 A3006 RMK A01 T01641071  RH  019%=      5-min Rain = 0
KEN1 122305Z 13001KT 16/M07 A3006 RMK A01 T01631072  RH  019%=      5-min Rain = 0
KEN1 122306Z 13001KT 16/M07 A3006 RMK A01 T01621073  RH  019%=      5-min Rain = 0
KEN1 122307Z 08000KT 16/M07 A3006 RMK A01 T01611070  RH  020%=      5-min Rain = 0
KEN1 122308Z 06001KT 16/M07 A3006 RMK A01 T01601072  RH  020%=      5-min Rain = 0
KEN1 122309Z 06001KT 16/M07 A3006 RMK A01 T01581073  RH  020%=      5-min Rain = 0
KEN1 122310Z 04001KT 16/M07 A3006 RMK A01 T01571073  RH  020%=      5-min Rain = 0
KEN1 122311Z 04001KT 16/M07 A3006 RMK A01 T01561072  RH  020%=      5-min Rain = 0
KEN1 122312Z 04001KT 16/M07 A3006 RMK A01 T01551073  RH  020%=      5-min Rain = 0
KEN1 122313Z 03002KT 15/M07 A3006 RMK A01 T01541072  RH  020%=      5-min Rain = 0
KEN1 122314Z 03002KT 15/M07 A3006 RMK A01 T01541071  RH  021%=      5-min Rain = 0
KEN1 122315Z 03002KT 15/M07 A3006 RMK A01 T01531069  RH  021%=      5-min Rain = 0
KEN1 122316Z 03002KT 15/M07 A3006 RMK A01 T01511070  RH  021%=      5-min Rain = 0
KEN1 122317Z 03002KT 15/M07 A3006 RMK A01 T01511069  RH  021%=      5-min Rain = 0
KEN1 122318Z 02002KT 15/M07 A3007 RMK A01 T01501071  RH  021%=      5-min Rain = 0
KEN1 122319Z 02002KT 15/M07 A3007 RMK A01 T01491072  RH  021%=      5-min Rain = 0
KEN1 122320Z 02002KT 15/M07 A3007 RMK A01 T01491073  RH  021%=      5-min Rain = 0
KEN1 122321Z 03002KT 15/M07 A3007 RMK A01 T01491073  RH  021%=      5-min Rain = 0
KEN1 122322Z 02002KT 15/M07 A3007 RMK A01 T01491074  RH  021%=      5-min Rain = 0
KEN1 122323Z 03002KT 15/M07 A3007 RMK A01 T01491074  RH  021%=      5-min Rain = 0
KEN1 122324Z 03003KT 15/M07 A3007 RMK A01 T01491071  RH  021%=      5-min Rain = 0
KEN1 122325Z 03003KT 15/M07 A3007 RMK A01 T01471070  RH  022%=      5-min Rain = 0
KEN1 122326Z 03003KT 15/M07 A3007 RMK A01 T01451070  RH  022%=      5-min Rain = 0
KEN1 122327Z 03003KT 14/M07 A3007 RMK A01 T01431069  RH  022%=      5-min Rain = 0
KEN1 122328Z 04004KT 14/M07 A3007 RMK A01 T01411068  RH  023%=      5-min Rain = 0
KEN1 122329Z 04005KT 14/M07 A3007 RMK A01 T01391068  RH  023%=      5-min Rain = 0
KEN1 122330Z 04006KT 14/M07 A3008 RMK A01 T01371068  RH  023%=      5-min Rain = 0
KEN1 122331Z 05007KT 14/M07 A3008 RMK A01 T01351065  RH  024%=      5-min Rain = 0
KEN1 122332Z 05008KT 13/M06 A3008 RMK A01 T01311059  RH  026%=      5-min Rain = 0
KEN1 122333Z 06009KT 13/M06 A3008 RMK A01 T01291055  RH  027%=      5-min Rain = 0
KEN1 122334Z 06009KT 13/M05 A3008 RMK A01 T01291052  RH  028%=      5-min Rain = 0
KEN1 122335Z 05009KT 13/M05 A3008 RMK A01 T01291050  RH  028%=      5-min Rain = 0
KEN1 122336Z 05008KT 13/M05 A3008 RMK A01 T01291048  RH  029%=      5-min Rain = 0
KEN1 122337Z 05009G15KT 13/M05 A3008 RMK A01 T01301046  RH  029%=      5-min Rain = 0
KEN1 122338Z 05012KT 13/M05 A3008 RMK A01 T01311047  RH  029%=      5-min Rain = 0
KEN1 122339Z 05011KT 13/M05 A3008 RMK A01 T01321048  RH  028%=      5-min Rain = 0
KEN1 122340Z 05010KT 13/M05 A3008 RMK A01 T01331049  RH  028%=      5-min Rain = 0
KEN1 122341Z 05009KT 13/M05 A3008 RMK A01 T01341048  RH  028%=      5-min Rain = 0
KEN1 122342Z 05009KT 13/M05 A3008 RMK A01 T01331048  RH  028%=      5-min Rain = 0
KEN1 122343Z 05010KT 13/M05 A3008 RMK A01 T01331049  RH  028%=      5-min Rain = 0
KEN1 122344Z 06009KT 13/M05 A3008 RMK A01 T01331048  RH  028%=      5-min Rain = 0
KEN1 122345Z 06009KT 13/M05 A3008 RMK A01 T01321048  RH  028%=      5-min Rain = 0
KEN1 122346Z 06009KT 13/M05 A3008 RMK A01 T01311048  RH  028%=      5-min Rain = 0
KEN1 122347Z 06009KT 13/M05 A3008 RMK A01 T01301048  RH  029%=      5-min Rain = 0
KEN1 122348Z 06009KT 13/M05 A3008 RMK A01 T01301049  RH  029%=      5-min Rain = 0
KEN1 122349Z 06009KT 13/M05 A3009 RMK A01 T01301049  RH  028%=      5-min Rain = 0
KEN1 122350Z 06010KT 13/M05 A3009 RMK A01 T01291049  RH  029%=      5-min Rain = 0
KEN1 122351Z 06010KT 13/M05 A3009 RMK A01 T01291049  RH  029%=      5-min Rain = 0
KEN1 122352Z 07010KT 13/M05 A3009 RMK A01 T01281049  RH  029%=      5-min Rain = 0
KEN1 122353Z 07010KT 13/M05 A3009 RMK A01 T01271049  RH  029%=      5-min Rain = 0
KEN1 122354Z 07009KT 13/M05 A3009 RMK A01 T01261050  RH  029%=      5-min Rain = 0
KEN1 122355Z 08010KT 13/M05 A3009 RMK A01 T01261049  RH  029%=      5-min Rain = 0
KEN1 122356Z 08008KT 13/M05 A3009 RMK A01 T01251049  RH  029%=      5-min Rain = 0
KEN1 122357Z 08007KT 13/M05 A3009 RMK A01 T01251050  RH  029%=      5-min Rain = 0
KEN1 122358Z 07007KT 13/M05 A3009 RMK A01 T01251050  RH  029%=      5-min Rain = 0
KEN1 122359Z 05009KT 12/M05 A3009 RMK A01 T01241050  RH  029%=      5-min Rain = 0
KEN1 130000Z 06010KT 12/M05 A3009 RMK A01 T01241052  RH  029%=      5-min Rain = 0
KEN1 130001Z 06008KT 13/M05 A3009 RMK A01 T01251052  RH  029%=      5-min Rain = 0
KEN1 130002Z 06009KT 12/M05 A3009 RMK A01 T01241051  RH  029%=      5-min Rain = 0
KEN1 130003Z 05011KT 12/M05 A301 RMK A01 T01231051  RH  029%=      5-min Rain = 0
KEN1 130004Z 04012KT 12/M05 A301 RMK A01 T01221050  RH  030%=      5-min Rain = 0
KEN1 130005Z 04013KT 12/M05 A301 RMK A01 T01211051  RH  030%=      5-min Rain = 0
KEN1 130006Z 04011KT 12/M05 A3011 RMK A01 T01221050  RH  030%=      5-min Rain = 0
KEN1 130007Z 04013KT 12/M05 A3011 RMK A01 T01211048  RH  030%=      5-min Rain = 0
KEN1 130008Z 04012KT 12/M05 A3011 RMK A01 T01201049  RH  030%=      5-min Rain = 0
KEN1 130009Z 05014KT 12/M05 A3011 RMK A01 T01191049  RH  030%=      5-min Rain = 0
KEN1 130010Z 05013KT 12/M05 A3011 RMK A01 T01191050  RH  030%=      5-min Rain = 0
KEN1 130011Z 06013KT 12/M05 A3011 RMK A01 T01181051  RH  030%=      5-min Rain = 0
KEN1 130012Z 06013KT 12/M05 A3011 RMK A01 T01181052  RH  030%=      5-min Rain = 0
KEN1 130013Z 05012KT 12/M05 A3011 RMK A01 T01181052  RH  030%=      5-min Rain = 0
KEN1 130014Z 05013KT 12/M05 A3011 RMK A01 T01181052  RH  030%=      5-min Rain = 0
KEN1 130015Z 05014KT 12/M05 A3011 RMK A01 T01171052  RH  030%=      5-min Rain = 0
KEN1 130016Z 05013KT 12/M05 A3012 RMK A01 T01171052  RH  030%=      5-min Rain = 0
KEN1 130017Z 05013KT 12/M05 A3012 RMK A01 T01161052  RH  030%=      5-min Rain = 0
KEN1 130018Z 05012KT 12/M05 A3012 RMK A01 T01151052  RH  031%=      5-min Rain = 0
KEN1 130019Z 05015KT 12/M05 A3012 RMK A01 T01151052  RH  031%=      5-min Rain = 0
KEN1 130020Z 06017KT 12/M05 A3012 RMK A01 T01151053  RH  030%=      5-min Rain = 0
KEN1 130021Z 06016KT 12/M05 A3012 RMK A01 T01151054  RH  030%=      5-min Rain = 0
KEN1 130022Z 06016KT 12/M05 A3012 RMK A01 T01151053  RH  030%=      5-min Rain = 0
KEN1 130023Z 05015KT 12/M05 A3012 RMK A01 T01151054  RH  030%=      5-min Rain = 0
KEN1 130024Z 05014KT 12/M05 A3012 RMK A01 T01151054  RH  030%=      5-min Rain = 0
KEN1 130025Z 05015G20KT 12/M05 A3012 RMK A01 T01151053  RH  030%=      5-min Rain = 0
KEN1 130026Z 06019KT 11/M05 A3012 RMK A01 T01141053  RH  031%=      5-min Rain = 0
KEN1 130027Z 05022G29KT 11/M05 A3013 RMK A01 T01141053  RH  031%=      5-min Rain = 0
KEN1 130028Z 06017G24KT 12/M06 A3013 RMK A01 T01151055  RH  030%=      5-min Rain = 0
KEN1 130029Z 07019G26KT 12/M05 A3013 RMK A01 T01161054  RH  030%=      5-min Rain = 0
KEN1 130030Z 08018G24KT 12/M05 A3013 RMK A01 T01151051  RH  031%=      5-min Rain = 0
KEN1 130031Z 08012KT 11/M05 A3013 RMK A01 T01141052  RH  031%=      5-min Rain = 0
KEN1 130032Z 07017KT 11/M05 A3013 RMK A01 T01131052  RH  031%=      5-min Rain = 0
KEN1 130033Z 07017KT 11/M05 A3013 RMK A01 T01121052  RH  031%=      5-min Rain = 0
KEN1 130034Z 07017KT 11/M05 A3013 RMK A01 T01111053  RH  031%=      5-min Rain = 0
KEN1 130035Z 06016KT 11/M05 A3014 RMK A01 T01111053  RH  031%=      5-min Rain = 0
KEN1 130036Z 07015KT 11/M05 A3014 RMK A01 T01101053  RH  031%=      5-min Rain = 0
KEN1 130037Z 06015KT 11/M05 A3014 RMK A01 T01101053  RH  031%=      5-min Rain = 0
KEN1 130038Z 06015KT 11/M05 A3014 RMK A01 T01091054  RH  031%=      5-min Rain = 0
KEN1 130039Z 07015KT 11/M05 A3014 RMK A01 T01091054  RH  031%=      5-min Rain = 0
KEN1 130040Z 07016KT 11/M05 A3015 RMK A01 T01091054  RH  031%=      5-min Rain = 0
KEN1 130041Z 07017KT 11/M05 A3015 RMK A01 T01081054  RH  031%=      5-min Rain = 0
KEN1 130042Z 07014KT 11/M05 A3015 RMK A01 T01081054  RH  032%=      5-min Rain = 0
KEN1 130043Z 06015KT 11/M05 A3015 RMK A01 T01071054  RH  032%=      5-min Rain = 0
KEN1 130044Z 07017KT 11/M05 A3015 RMK A01 T01061054  RH  032%=      5-min Rain = 0
KEN1 130045Z 07018KT 11/M06 A3015 RMK A01 T01051055  RH  032%=      5-min Rain = 0
KEN1 130046Z 06017KT 11/M06 A3015 RMK A01 T01051056  RH  032%=      5-min Rain = 0
KEN1 130047Z 06016KT 11/M06 A3015 RMK A01 T01051056  RH  032%=      5-min Rain = 0
KEN1 130048Z 06019KT 11/M06 A3015 RMK A01 T01051056  RH  032%=      5-min Rain = 0
KEN1 130049Z 06017KT 11/M06 A3015 RMK A01 T01051057  RH  032%=      5-min Rain = 0
KEN1 130050Z 06017KT 11/M06 A3015 RMK A01 T01061056  RH  032%=      5-min Rain = 0
KEN1 130051Z 06017KT 11/M06 A3016 RMK A01 T01051056  RH  032%=      5-min Rain = 0
KEN1 130052Z 06018KT 11/M06 A3016 RMK A01 T01051056  RH  032%=      5-min Rain = 0
KEN1 130053Z 06016KT 11/M06 A3016 RMK A01 T01051056  RH  032%=      5-min Rain = 0
KEN1 130054Z 06015KT 11/M06 A3016 RMK A01 T01051056  RH  032%=      5-min Rain = 0
KEN1 130055Z 06016KT 10/M06 A3016 RMK A01 T01041055  RH  032%=      5-min Rain = 0
KEN1 130056Z 06015KT 10/M06 A3016 RMK A01 T01041055  RH  032%=      5-min Rain = 0
KEN1 130057Z 06015KT 10/M06 A3016 RMK A01 T01031055  RH  032%=      5-min Rain = 0
KEN1 130058Z 06017KT 10/M06 A3017 RMK A01 T01031055  RH  032%=      5-min Rain = 0
KEN1 130059Z 06015KT 10/M05 A3017 RMK A01 T01031054  RH  033%=      5-min Rain = 0
KEN1 130100Z 06017KT 10/M05 A3017 RMK A01 T01031054  RH  033%=      5-min Rain = 0
KEN1 130101Z 06018KT 10/M06 A3017 RMK A01 T01041055  RH  032%=      5-min Rain = 0
KEN1 130102Z 06016KT 11/M06 A3017 RMK A01 T01051055  RH  032%=      5-min Rain = 0
KEN1 130103Z 06015KT 10/M05 A3017 RMK A01 T01041054  RH  032%=      5-min Rain = 0
KEN1 130104Z 06014KT 10/M05 A3017 RMK A01 T01031054  RH  033%=      5-min Rain = 0
KEN1 130105Z 08013KT 10/M05 A3017 RMK A01 T01021054  RH  033%=      5-min Rain = 0
KEN1 130106Z 08014KT 10/M05 A3017 RMK A01 T01011053  RH  033%=      5-min Rain = 0
KEN1 130107Z 08014KT 10/M06 A3017 RMK A01 T01011055  RH  033%=      5-min Rain = 0
KEN1 130108Z 08013KT 10/M06 A3017 RMK A01 T01011055  RH  033%=      5-min Rain = 0
KEN1 130109Z 08014KT 10/M06 A3017 RMK A01 T01001055  RH  033%=      5-min Rain = 0
KEN1 130110Z 08014KT 10/M06 A3017 RMK A01 T01001056  RH  033%=      5-min Rain = 0
KEN1 130111Z 08014KT 10/M06 A3017 RMK A01 T01001056  RH  033%=      5-min Rain = 0
KEN1 130112Z 08015KT 10/M06 A3017 RMK A01 T01001057  RH  033%=      5-min Rain = 0
KEN1 130113Z 08014KT 10/M06 A3017 RMK A01 T01001057  RH  033%=      5-min Rain = 0
KEN1 130114Z 08012KT 10/M06 A3017 RMK A01 T00991057  RH  033%=      5-min Rain = 0
KEN1 130115Z 08013KT 10/M06 A3017 RMK A01 T00981057  RH  033%=      5-min Rain = 0
KEN1 130116Z 08015KT 10/M06 A3017 RMK A01 T00981057  RH  033%=      5-min Rain = 0
KEN1 130117Z 08014KT 10/M06 A3018 RMK A01 T00981058  RH  033%=      5-min Rain = 0
KEN1 130118Z 08014KT 10/M06 A3018 RMK A01 T00971058  RH  033%=      5-min Rain = 0
KEN1 130119Z 08014KT 10/M06 A3018 RMK A01 T00971058  RH  033%=      5-min Rain = 0
KEN1 130120Z 08014KT 10/M06 A3018 RMK A01 T00961058  RH  033%=      5-min Rain = 0
KEN1 130121Z 08014KT 10/M06 A3018 RMK A01 T00951058  RH  033%=      5-min Rain = 0
KEN1 130122Z 08014KT 10/M06 A3019 RMK A01 T00951059  RH  033%=      5-min Rain = 0
KEN1 130123Z 08013KT 09/M06 A3019 RMK A01 T00941059  RH  033%=      5-min Rain = 0
KEN1 130124Z 08013KT 09/M06 A3019 RMK A01 T00941060  RH  033%=      5-min Rain = 0
KEN1 130125Z 08011KT 09/M06 A3019 RMK A01 T00931060  RH  033%=      5-min Rain = 0
KEN1 130126Z 08013KT 09/M06 A3019 RMK A01 T00921061  RH  033%=      5-min Rain = 0
KEN1 130127Z 07012KT 09/M06 A3019 RMK A01 T00911061  RH  034%=      5-min Rain = 0
KEN1 130128Z 07013KT 09/M06 A302 RMK A01 T00901061  RH  034%=      5-min Rain = 0
KEN1 130129Z 07012KT 09/M06 A302 RMK A01 T00901061  RH  034%=      5-min Rain = 0
KEN1 130130Z 07012KT 09/M06 A302 RMK A01 T00891061  RH  034%=      5-min Rain = 0
KEN1 130131Z 07011KT 09/M06 A302 RMK A01 T00891061  RH  034%=      5-min Rain = 0
KEN1 130132Z 07012KT 09/M06 A3021 RMK A01 T00881062  RH  034%=      5-min Rain = 0
KEN1 130133Z 06011KT 09/M06 A3021 RMK A01 T00881061  RH  034%=      5-min Rain = 0
KEN1 130134Z 06011KT 09/M06 A3021 RMK A01 T00881061  RH  034%=      5-min Rain = 0
KEN1 130135Z 06011KT 09/M06 A3021 RMK A01 T00871060  RH  035%=      5-min Rain = 0
KEN1 130136Z 06011KT 09/M06 A3021 RMK A01 T00871061  RH  035%=      5-min Rain = 0
KEN1 130137Z 05011KT 09/M06 A3021 RMK A01 T00871060  RH  035%=      5-min Rain = 0
KEN1 130138Z 06012KT 09/M06 A3021 RMK A01 T00861060  RH  035%=      5-min Rain = 0
KEN1 130139Z 06011KT 09/M06 A3021 RMK A01 T00861061  RH  035%=      5-min Rain = 0
KEN1 130140Z 06011KT 09/M06 A3022 RMK A01 T00861061  RH  035%=      5-min Rain = 0
KEN1 130141Z 06011KT 09/M06 A3022 RMK A01 T00851061  RH  035%=      5-min Rain = 0
KEN1 130142Z 06012KT 08/M06 A3022 RMK A01 T00841061  RH  035%=      5-min Rain = 0
KEN1 130143Z 05011KT 08/M06 A3022 RMK A01 T00841061  RH  035%=      5-min Rain = 0
KEN1 130144Z 04011KT 08/M06 A3022 RMK A01 T00831061  RH  035%=      5-min Rain = 0
KEN1 130145Z 04011KT 08/M06 A3023 RMK A01 T00821061  RH  036%=      5-min Rain = 0
KEN1 130146Z 03010KT 08/M06 A3023 RMK A01 T00811060  RH  036%=      5-min Rain = 0
KEN1 130147Z 03010KT 08/M06 A3023 RMK A01 T00801060  RH  037%=      5-min Rain = 0
KEN1 130148Z 03011KT 08/M06 A3023 RMK A01 T00791060  RH  037%=      5-min Rain = 0
KEN1 130149Z 03012KT 08/M06 A3023 RMK A01 T00791058  RH  037%=      5-min Rain = 0
KEN1 130150Z 04012KT 08/M06 A3023 RMK A01 T00791058  RH  037%=      5-min Rain = 0
KEN1 130151Z 04012KT 08/M06 A3023 RMK A01 T00801057  RH  037%=      5-min Rain = 0
KEN1 130152Z 04012KT 08/M06 A3023 RMK A01 T00801056  RH  038%=      5-min Rain = 0
KEN1 130153Z 04012KT 08/M06 A3023 RMK A01 T00801056  RH  038%=      5-min Rain = 0
KEN1 130154Z 05013KT 08/M06 A3023 RMK A01 T00811056  RH  037%=      5-min Rain = 0
KEN1 130155Z 05012KT 08/M06 A3023 RMK A01 T00811057  RH  037%=      5-min Rain = 0
KEN1 130156Z 05013KT 08/M06 A3023 RMK A01 T00811057  RH  037%=      5-min Rain = 0
KEN1 130157Z 05012KT 08/M06 A3023 RMK A01 T00811057  RH  037%=      5-min Rain = 0
KEN1 130158Z 05013KT 08/M06 A3023 RMK A01 T00801057  RH  037%=      5-min Rain = 0
KEN1 130159Z 05013KT 08/M06 A3024 RMK A01 T00801057  RH  037%=      5-min Rain = 0
KEN1 130200Z 06014KT 08/M06 A3023 RMK A01 T00801058  RH  037%=      5-min Rain = 0
KEN1 130201Z 06014KT 08/M06 A3023 RMK A01 T00801059  RH  037%=      5-min Rain = 0
KEN1 130202Z 06015KT 08/M06 A3024 RMK A01 T00801061  RH  036%=      5-min Rain = 0
KEN1 130203Z 06012KT 08/M06 A3024 RMK A01 T00811061  RH  036%=      5-min Rain = 0
KEN1 130204Z 05012KT 08/M06 A3024 RMK A01 T00811061  RH  036%=      5-min Rain = 0
KEN1 130205Z 06011KT 08/M06 A3024 RMK A01 T00801061  RH  036%=      5-min Rain = 0
KEN1 130206Z 05010KT 08/M06 A3024 RMK A01 T00791061  RH  036%=      5-min Rain = 0
KEN1 130207Z 06010KT 08/M06 A3024 RMK A01 T00781061  RH  037%=      5-min Rain = 0
KEN1 130208Z 06010KT 08/M06 A3024 RMK A01 T00771061  RH  037%=      5-min Rain = 0
KEN1 130209Z 06010KT 08/M06 A3024 RMK A01 T00761061  RH  037%=      5-min Rain = 0
KEN1 130210Z 06010KT 08/M06 A3024 RMK A01 T00751062  RH  037%=      5-min Rain = 0
KEN1 130211Z 06010KT 08/M06 A3024 RMK A01 T00751062  RH  037%=      5-min Rain = 0
KEN1 130212Z 06010KT 08/M06 A3024 RMK A01 T00751062  RH  037%=      5-min Rain = 0
KEN1 130213Z 06010KT 07/M06 A3025 RMK A01 T00741062  RH  037%=      5-min Rain = 0
KEN1 130214Z 06009KT 07/M06 A3025 RMK A01 T00731062  RH  038%=      5-min Rain = 0
KEN1 130215Z 06009KT 07/M06 A3025 RMK A01 T00721062  RH  038%=      5-min Rain = 0
KEN1 130216Z 06008KT 07/M06 A3025 RMK A01 T00711062  RH  038%=      5-min Rain = 0
KEN1 130217Z 06008KT 07/M06 A3025 RMK A01 T00711062  RH  038%=      5-min Rain = 0
KEN1 130218Z 06007KT 07/M06 A3025 RMK A01 T00701063  RH  038%=      5-min Rain = 0
KEN1 130219Z 06007KT 07/M06 A3025 RMK A01 T00691063  RH  039%=      5-min Rain = 0
KEN1 130220Z 06007KT 07/M06 A3025 RMK A01 T00671063  RH  039%=      5-min Rain = 0
KEN1 130221Z 07007KT 07/M06 A3025 RMK A01 T00661064  RH  039%=      5-min Rain = 0
KEN1 130222Z 07007KT 07/M06 A3025 RMK A01 T00651063  RH  040%=      5-min Rain = 0
KEN1 130223Z 06007KT 06/M06 A3025 RMK A01 T00641063  RH  040%=      5-min Rain = 0
KEN1 130224Z 06007KT 06/M06 A3026 RMK A01 T00621063  RH  040%=      5-min Rain = 0
KEN1 130225Z 06008KT 06/M06 A3026 RMK A01 T00621063  RH  040%=      5-min Rain = 0
KEN1 130226Z 06007KT 06/M06 A3026 RMK A01 T00611063  RH  041%=      5-min Rain = 0
KEN1 130227Z 06007KT 06/M06 A3026 RMK A01 T00601063  RH  041%=      5-min Rain = 0
KEN1 130228Z 06007KT 06/M06 A3026 RMK A01 T00601063  RH  041%=      5-min Rain = 0
KEN1 130229Z 06006KT 06/M06 A3026 RMK A01 T00591062  RH  041%=      5-min Rain = 0
KEN1 130230Z 05006KT 06/M06 A3026 RMK A01 T00581063  RH  041%=      5-min Rain = 0
KEN1 130231Z 04006KT 06/M06 A3027 RMK A01 T00581062  RH  042%=      5-min Rain = 0
KEN1 130232Z 03006KT 06/M06 A3027 RMK A01 T00571062  RH  042%=      5-min Rain = 0
KEN1 130233Z 02007KT 06/M06 A3027 RMK A01 T00551061  RH  043%=      5-min Rain = 0
KEN1 130234Z 02007KT 05/M06 A3027 RMK A01 T00541061  RH  043%=      5-min Rain = 0
KEN1 130235Z 02008KT 05/M06 A3028 RMK A01 T00531061  RH  044%=      5-min Rain = 0
KEN1 130236Z 01009KT 05/M06 A3028 RMK A01 T00521060  RH  044%=      5-min Rain = 0
KEN1 130237Z 02009KT 05/M06 A3028 RMK A01 T00511060  RH  044%=      5-min Rain = 0
KEN1 130238Z 02009KT 05/M06 A3028 RMK A01 T00511059  RH  045%=      5-min Rain = 0
KEN1 130239Z 01009KT 05/M06 A3028 RMK A01 T00521059  RH  045%=      5-min Rain = 0
KEN1 130240Z 01009KT 05/M06 A3029 RMK A01 T00531058  RH  045%=      5-min Rain = 0
KEN1 130241Z 02009KT 05/M06 A3029 RMK A01 T00541057  RH  044%=      5-min Rain = 0
KEN1 130242Z 03008KT 06/M06 A3029 RMK A01 T00551057  RH  044%=      5-min Rain = 0
KEN1 130243Z 04008KT 06/M06 A3029 RMK A01 T00571058  RH  043%=      5-min Rain = 0
KEN1 130244Z 05007KT 06/M06 A3029 RMK A01 T00591057  RH  043%=      5-min Rain = 0
KEN1 130245Z 06007KT 06/M06 A3028 RMK A01 T00601058  RH  043%=      5-min Rain = 0
KEN1 130246Z 06007KT 06/M06 A3028 RMK A01 T00601058  RH  042%=      5-min Rain = 0
KEN1 130247Z 06007KT 06/M06 A3029 RMK A01 T00601058  RH  042%=      5-min Rain = 0
KEN1 130248Z 05008KT 06/M06 A3029 RMK A01 T00601058  RH  042%=      5-min Rain = 0
KEN1 130249Z 05008KT 06/M06 A3029 RMK A01 T00601058  RH  042%=      5-min Rain = 0
KEN1 130250Z 05008KT 06/M06 A3029 RMK A01 T00601057  RH  042%=      5-min Rain = 0
KEN1 130251Z 05008KT 06/M06 A3029 RMK A01 T00611058  RH  042%=      5-min Rain = 0
KEN1 130252Z 05008KT 06/M06 A3029 RMK A01 T00611058  RH  042%=      5-min Rain = 0
KEN1 130253Z 06008KT 06/M06 A3029 RMK A01 T00621058  RH  042%=      5-min Rain = 0
KEN1 130254Z 07007KT 06/M06 A3029 RMK A01 T00621058  RH  042%=      5-min Rain = 0
KEN1 130255Z 07007KT 06/M06 A3029 RMK A01 T00631058  RH  042%=      5-min Rain = 0
KEN1 130256Z 08008KT 06/M06 A3029 RMK A01 T00621059  RH  042%=      5-min Rain = 0
KEN1 130257Z 09008KT 06/M06 A3029 RMK A01 T00611060  RH  041%=      5-min Rain = 0
KEN1 130258Z 09009KT 06/M06 A3029 RMK A01 T00601062  RH  041%=      5-min Rain = 0
KEN1 130259Z 09009KT 06/M06 A3029 RMK A01 T00611064  RH  040%=      5-min Rain = 0
KEN1 130300Z 09008KT 06/M06 A3029 RMK A01 T00631064  RH  040%=      5-min Rain = 0
KEN1 130301Z 09008KT 06/M06 A303 RMK A01 T00631064  RH  040%=      5-min Rain = 0
KEN1 130302Z 09008KT 06/M06 A303 RMK A01 T00631064  RH  040%=      5-min Rain = 0
KEN1 130303Z 09007KT 06/M06 A303 RMK A01 T00621063  RH  040%=      5-min Rain = 0
KEN1 130304Z 09007KT 06/M06 A303 RMK A01 T00601064  RH  041%=      5-min Rain = 0
KEN1 130305Z 09007KT 06/M06 A303 RMK A01 T00581064  RH  041%=      5-min Rain = 0
KEN1 130306Z 09007KT 06/M06 A303 RMK A01 T00571064  RH  041%=      5-min Rain = 0
KEN1 130307Z 09007KT 06/M06 A303 RMK A01 T00561064  RH  042%=      5-min Rain = 0
KEN1 130308Z 08007KT 06/M07 A303 RMK A01 T00561065  RH  042%=      5-min Rain = 0
KEN1 130309Z 07006KT 06/M07 A3031 RMK A01 T00551066  RH  041%=      5-min Rain = 0
KEN1 130310Z 07007KT 05/M07 A3031 RMK A01 T00541067  RH  041%=      5-min Rain = 0
KEN1 130311Z 06007KT 05/M07 A3031 RMK A01 T00521068  RH  042%=      5-min Rain = 0
KEN1 130312Z 06008KT 05/M07 A3031 RMK A01 T00491069  RH  042%=      5-min Rain = 0
KEN1 130313Z 07008KT 05/M07 A3032 RMK A01 T00491069  RH  042%=      5-min Rain = 0
KEN1 130314Z 07008KT 05/M07 A3032 RMK A01 T00491069  RH  042%=      5-min Rain = 0
KEN1 130315Z 07007KT 05/M07 A3032 RMK A01 T00491070  RH  042%=      5-min Rain = 0
KEN1 130316Z 08007KT 05/M07 A3031 RMK A01 T00481071  RH  042%=      5-min Rain = 0
KEN1 130317Z 08008KT 05/M07 A3031 RMK A01 T00461072  RH  042%=      5-min Rain = 0
KEN1 130318Z 08008KT 05/M07 A3032 RMK A01 T00461071  RH  042%=      5-min Rain = 0
KEN1 130319Z 08007KT 05/M07 A3032 RMK A01 T00451071  RH  043%=      5-min Rain = 0
KEN1 130320Z 07007KT 04/M07 A3032 RMK A01 T00431072  RH  043%=      5-min Rain = 0
KEN1 130321Z 07007KT 04/M07 A3032 RMK A01 T00401072  RH  044%=      5-min Rain = 0
KEN1 130322Z 07007KT 04/M07 A3033 RMK A01 T00381072  RH  044%=      5-min Rain = 0
KEN1 130323Z 06008KT 04/M07 A3033 RMK A01 T00361072  RH  045%=      5-min Rain = 0
KEN1 130324Z 06009KT 03/M07 A3033 RMK A01 T00341071  RH  046%=      5-min Rain = 0
KEN1 130325Z 06010KT 03/M07 A3033 RMK A01 T00331070  RH  047%=      5-min Rain = 0
KEN1 130326Z 05010KT 03/M07 A3033 RMK A01 T00331069  RH  047%=      5-min Rain = 0
KEN1 130327Z 06010KT 03/M07 A3034 RMK A01 T00341067  RH  048%=      5-min Rain = 0
KEN1 130328Z 06009KT 04/M07 A3034 RMK A01 T00351066  RH  047%=      5-min Rain = 0
KEN1 130329Z 06009KT 04/M07 A3034 RMK A01 T00371065  RH  047%=      5-min Rain = 0
KEN1 130330Z 06009KT 04/M07 A3034 RMK A01 T00391065  RH  047%=      5-min Rain = 0
KEN1 130331Z 06008KT 04/M07 A3034 RMK A01 T00401065  RH  046%=      5-min Rain = 0
KEN1 130332Z 06009KT 04/M07 A3034 RMK A01 T00401065  RH  046%=      5-min Rain = 0
KEN1 130333Z 06009KT 04/M07 A3034 RMK A01 T00391065  RH  047%=      5-min Rain = 0
KEN1 130334Z 06009KT 04/M06 A3034 RMK A01 T00391064  RH  047%=      5-min Rain = 0
KEN1 130335Z 07009KT 04/M06 A3034 RMK A01 T00391064  RH  047%=      5-min Rain = 0
KEN1 130336Z 07009KT 04/M06 A3034 RMK A01 T00391064  RH  047%=      5-min Rain = 0
KEN1 130337Z 07009KT 04/M07 A3034 RMK A01 T00381065  RH  047%=      5-min Rain = 0
KEN1 130338Z 08009KT 04/M07 A3034 RMK A01 T00371065  RH  047%=      5-min Rain = 0
KEN1 130339Z 09009KT 04/M07 A3034 RMK A01 T00371067  RH  047%=      5-min Rain = 0
KEN1 130340Z 09009KT 04/M07 A3034 RMK A01 T00391067  RH  046%=      5-min Rain = 0
KEN1 130341Z 09009KT 04/M07 A3034 RMK A01 T00391068  RH  046%=      5-min Rain = 0
KEN1 130342Z 09010KT 04/M07 A3034 RMK A01 T00391068  RH  045%=      5-min Rain = 0
KEN1 130343Z 09010KT 04/M07 A3034 RMK A01 T00391069  RH  045%=      5-min Rain = 0
KEN1 130344Z 09010KT 04/M07 A3034 RMK A01 T00401070  RH  045%=      5-min Rain = 0
KEN1 130345Z 09010KT 04/M07 A3034 RMK A01 T00401072  RH  044%=      5-min Rain = 0
KEN1 130346Z 09010KT 04/M07 A3034 RMK A01 T00401072  RH  044%=      5-min Rain = 0
KEN1 130347Z 09010KT 04/M07 A3034 RMK A01 T00401071  RH  044%=      5-min Rain = 0
KEN1 130348Z 09010KT 04/M07 A3034 RMK A01 T00391071  RH  045%=      5-min Rain = 0
KEN1 130349Z 09011KT 04/M07 A3034 RMK A01 T00391071  RH  045%=      5-min Rain = 0
KEN1 130350Z 09011KT 04/M07 A3034 RMK A01 T00391072  RH  044%=      5-min Rain = 0
KEN1 130351Z 10012KT 04/M07 A3034 RMK A01 T00391074  RH  044%=      5-min Rain = 0
KEN1 130352Z 09013KT 04/M08 A3035 RMK A01 T00381076  RH  043%=      5-min Rain = 0
KEN1 130353Z 09013KT 04/M08 A3035 RMK A01 T00381078  RH  042%=      5-min Rain = 0
KEN1 130354Z 09012KT 04/M08 A3034 RMK A01 T00381079  RH  042%=      5-min Rain = 0
KEN1 130355Z 09012KT 04/M08 A3035 RMK A01 T00371080  RH  042%=      5-min Rain = 0
KEN1 130356Z 09011KT 04/M08 A3035 RMK A01 T00351080  RH  043%=      5-min Rain = 0
KEN1 130357Z 09012KT 03/M08 A3035 RMK A01 T00331081  RH  043%=      5-min Rain = 0
KEN1 130358Z 09012KT 03/M08 A3035 RMK A01 T00321082  RH  043%=      5-min Rain = 0
KEN1 130359Z 09010KT 03/M08 A3035 RMK A01 T00321083  RH  043%=      5-min Rain = 0
KEN1 130400Z 09010KT 03/M08 A3035 RMK A01 T00311084  RH  043%=      5-min Rain = 0
KEN1 130401Z 09010KT 03/M08 A3035 RMK A01 T00301084  RH  043%=      5-min Rain = 0
KEN1 130402Z 09010KT 03/M09 A3035 RMK A01 T00281085  RH  043%=      5-min Rain = 0
KEN1 130403Z 09009KT 03/M09 A3035 RMK A01 T00261085  RH  044%=      5-min Rain = 0
KEN1 130404Z 09008KT 03/M09 A3035 RMK A01 T00251085  RH  044%=      5-min Rain = 0
KEN1 130405Z 09009KT 02/M09 A3035 RMK A01 T00241085  RH  044%=      5-min Rain = 0
KEN1 130406Z 09009KT 02/M09 A3035 RMK A01 T00231085  RH  045%=      5-min Rain = 0
KEN1 130407Z 10009KT 02/M09 A3035 RMK A01 T00231085  RH  045%=      5-min Rain = 0
KEN1 130408Z 10008KT 02/M09 A3035 RMK A01 T00221085  RH  045%=      5-min Rain = 0
KEN1 130409Z 10007KT 02/M09 A3035 RMK A01 T00211085  RH  045%=      5-min Rain = 0
KEN1 130410Z 10006KT 02/M09 A3035 RMK A01 T00201085  RH  046%=      5-min Rain = 0
KEN1 130411Z 10005KT 02/M09 A3035 RMK A01 T00191086  RH  046%=      5-min Rain = 0
KEN1 130412Z 09003KT 02/M09 A3036 RMK A01 T00171086  RH  046%=      5-min Rain = 0
KEN1 130413Z 06002KT 02/M09 A3036 RMK A01 T00151087  RH  047%=      5-min Rain = 0
KEN1 130414Z 03002KT 01/M09 A3036 RMK A01 T00121087  RH  047%=      5-min Rain = 0
KEN1 130415Z 01003KT 01/M09 A3036 RMK A01 T00111087  RH  048%=      5-min Rain = 0
KEN1 130416Z 36004KT 01/M09 A3036 RMK A01 T00101087  RH  049%=      5-min Rain = 0
KEN1 130417Z 00005KT 01/M09 A3036 RMK A01 T00091086  RH  049%=      5-min Rain = 0
KEN1 130418Z 36005KT 01/M09 A3036 RMK A01 T00081086  RH  049%=      5-min Rain = 0
KEN1 130419Z 36006KT 01/M09 A3037 RMK A01 T00081086  RH  050%=      5-min Rain = 0
KEN1 130420Z 35006KT 01/M09 A3037 RMK A01 T00091086  RH  049%=      5-min Rain = 0
KEN1 130421Z 35005KT 01/M09 A3037 RMK A01 T00101086  RH  049%=      5-min Rain = 0
KEN1 130422Z 01005KT 01/M09 A3037 RMK A01 T00121086  RH  048%=      5-min Rain = 0
KEN1 130423Z 02005KT 01/M09 A3037 RMK A01 T00121087  RH  047%=      5-min Rain = 0
KEN1 130424Z 02005KT 01/M09 A3037 RMK A01 T00141089  RH  046%=      5-min Rain = 0
KEN1 130425Z 03004KT 01/M09 A3037 RMK A01 T00141090  RH  046%=      5-min Rain = 0
KEN1 130426Z 03004KT 01/M09 A3037 RMK A01 T00131090  RH  046%=      5-min Rain = 0
KEN1 130427Z 03004KT 01/M09 A3038 RMK A01 T00121091  RH  046%=      5-min Rain = 0
KEN1 130428Z 02004KT 01/M09 A3038 RMK A01 T00101091  RH  047%=      5-min Rain = 0
KEN1 130429Z 02005KT 01/M09 A3038 RMK A01 T00101091  RH  047%=      5-min Rain = 0
KEN1 130430Z 02005KT 01/M09 A3038 RMK A01 T00091091  RH  047%=      5-min Rain = 0
KEN1 130431Z 02005KT 01/M09 A3038 RMK A01 T00071092  RH  048%=      5-min Rain = 0
KEN1 130432Z 03006KT 00/M09 A3038 RMK A01 T00041092  RH  049%=      5-min Rain = 0
KEN1 130433Z 03006KT 00/M09 A3038 RMK A01 T00031092  RH  049%=      5-min Rain = 0
KEN1 130434Z 04006KT 00/M09 A3038 RMK A01 T00021091  RH  050%=      5-min Rain = 0
KEN1 130435Z 04006KT 00/M09 A3038 RMK A01 T00031089  RH  050%=      5-min Rain = 0
KEN1 130436Z 05006KT 00/M09 A3038 RMK A01 T00031089  RH  050%=      5-min Rain = 0
KEN1 130437Z 04007KT 00/M09 A3038 RMK A01 T00031090  RH  050%=      5-min Rain = 0
KEN1 130438Z 05007KT 00/M09 A3038 RMK A01 T00011090  RH  050%=      5-min Rain = 0
KEN1 130439Z 05007KT M00/M09 A3038 RMK A01 T10011090  RH  051%=      5-min Rain = 0
KEN1 130440Z 05007KT M00/M09 A3038 RMK A01 T10011089  RH  051%=      5-min Rain = 0
KEN1 130441Z 05008KT M00/M09 A3039 RMK A01 T10021090  RH  051%=      5-min Rain = 0
KEN1 130442Z 05008KT M00/M09 A3039 RMK A01 T10031090  RH  052%=      5-min Rain = 0
KEN1 130443Z 05009KT M00/M09 A3039 RMK A01 T10041090  RH  052%=      5-min Rain = 0
KEN1 130444Z 06009KT M00/M09 A3039 RMK A01 T10041089  RH  053%=      5-min Rain = 0
KEN1 130445Z 06009KT M00/M09 A3039 RMK A01 T10021089  RH  052%=      5-min Rain = 0
KEN1 130446Z 06008KT 00/09 A3039 RMK A01 T00-00-90  RH  051%=      5-min Rain = 0
KEN1 130447Z 06007KT 00/M09 A3039 RMK A01 T00011090  RH  050%=      5-min Rain = 0
KEN1 130448Z 06007KT 00/M09 A3039 RMK A01 T00011091  RH  050%=      5-min Rain = 0
KEN1 130449Z 06007KT 00/M09 A3039 RMK A01 T00011091  RH  050%=      5-min Rain = 0
KEN1 130450Z 06007KT M00/M09 A3039 RMK A01 T10011092  RH  050%=      5-min Rain = 0
KEN1 130451Z 07007KT M00/M09 A3039 RMK A01 T10031093  RH  051%=      5-min Rain = 0
KEN1 130452Z 07007KT M00/M09 A3039 RMK A01 T10031093  RH  051%=      5-min Rain = 0
KEN1 130453Z 06007KT M00/M09 A304 RMK A01 T10041093  RH  051%=      5-min Rain = 0
KEN1 130454Z 06008KT M01/M09 A304 RMK A01 T10061094  RH  051%=      5-min Rain = 0
KEN1 130455Z 06008KT M01/M10 A304 RMK A01 T10081095  RH  052%=      5-min Rain = 0
KEN1 130456Z 07008KT M01/M10 A304 RMK A01 T10081095  RH  052%=      5-min Rain = 0
KEN1 130457Z 08007KT M01/M10 A304 RMK A01 T10071095  RH  051%=      5-min Rain = 0
KEN1 130458Z 08007KT M01/M10 A304 RMK A01 T10061095  RH  051%=      5-min Rain = 0
KEN1 130459Z 09006KT M01/M10 A304 RMK A01 T10061095  RH  051%=      5-min Rain = 0
KEN1 130500Z 09005KT M01/M10 A304 RMK A01 T10071096  RH  051%=      5-min Rain = 0
KEN1 130501Z 09003KT M01/M10 A304 RMK A01 T10081096  RH  051%=      5-min Rain = 0
KEN1 130502Z 07003KT M01/M10 A304 RMK A01 T10091095  RH  052%=      5-min Rain = 0
KEN1 130503Z 06004KT M01/M10 A304 RMK A01 T10091095  RH  052%=      5-min Rain = 0
KEN1 130504Z 06004KT M01/M10 A304 RMK A01 T10101096  RH  052%=      5-min Rain = 0
KEN1 130505Z 06003KT M01/M10 A304 RMK A01 T10091096  RH  052%=      5-min Rain = 0
KEN1 130506Z 07003KT M01/M10 A304 RMK A01 T10091097  RH  051%=      5-min Rain = 0
KEN1 130507Z 08003KT M01/M10 A304 RMK A01 T10071097  RH  051%=      5-min Rain = 0
KEN1 130508Z 09002KT M01/M10 A304 RMK A01 T10061097  RH  050%=      5-min Rain = 0
KEN1 130509Z 09002KT M01/M10 A304 RMK A01 T10051097  RH  050%=      5-min Rain = 0
KEN1 130510Z 09002KT M01/M10 A3041 RMK A01 T10051098  RH  050%=      5-min Rain = 0
KEN1 130511Z 08002KT M01/M10 A3041 RMK A01 T10061096  RH  050%=      5-min Rain = 0
KEN1 130512Z 09003KT M01/M10 A3041 RMK A01 T10091095  RH  052%=      5-min Rain = 0
KEN1 130513Z 09002KT M01/M10 A3041 RMK A01 T10101096  RH  052%=      5-min Rain = 0
KEN1 130514Z 13003KT M01/M10 A304 RMK A01 T10101096  RH  052%=      5-min Rain = 0
KEN1 130515Z 15004KT M01/M10 A304 RMK A01 T10101096  RH  052%=      5-min Rain = 0
KEN1 130516Z 14004KT M01/M10 A304 RMK A01 T10101095  RH  053%=      5-min Rain = 0
KEN1 130517Z 14005KT M01/M09 A304 RMK A01 T10111094  RH  053%=      5-min Rain = 0
KEN1 130518Z 13005KT M01/M09 A304 RMK A01 T10131094  RH  054%=      5-min Rain = 0
KEN1 130519Z 12005KT M01/M09 A304 RMK A01 T10141094  RH  054%=      5-min Rain = 0
KEN1 130520Z 10005KT M01/M10 A304 RMK A01 T10141096  RH  054%=      5-min Rain = 0
KEN1 130521Z 09005KT M01/M10 A3041 RMK A01 T10141096  RH  054%=      5-min Rain = 0
KEN1 130522Z 09007KT M01/M10 A3041 RMK A01 T10141097  RH  053%=      5-min Rain = 0
KEN1 130523Z 10006KT M01/M10 A3041 RMK A01 T10131099  RH  052%=      5-min Rain = 0
KEN1 130524Z 11007KT M01/M10 A3041 RMK A01 T10131099  RH  052%=      5-min Rain = 0
KEN1 130525Z 11008KT M01/M10 A3041 RMK A01 T10121099  RH  052%=      5-min Rain = 0
KEN1 130526Z 11007KT M01/M10 A3041 RMK A01 T10111100  RH  051%=      5-min Rain = 0
KEN1 130527Z 10007KT M01/M10 A3041 RMK A01 T10101100  RH  051%=      5-min Rain = 0
KEN1 130528Z 10007KT M01/M10 A3041 RMK A01 T10101100  RH  050%=      5-min Rain = 0
KEN1 130529Z 10008KT M01/M10 A3041 RMK A01 T10111101  RH  051%=      5-min Rain = 0
KEN1 130530Z 10008KT M01/M10 A3041 RMK A01 T10121101  RH  051%=      5-min Rain = 0
KEN1 130531Z 11007KT M01/M10 A3041 RMK A01 T10131101  RH  051%=      5-min Rain = 0
KEN1 130532Z 12006KT M01/M10 A3041 RMK A01 T10121101  RH  051%=      5-min Rain = 0
KEN1 130533Z 12006KT M01/M10 A3041 RMK A01 T10121101  RH  051%=      5-min Rain = 0
KEN1 130534Z 11006KT M01/M10 A3041 RMK A01 T10131101  RH  051%=      5-min Rain = 0
KEN1 130535Z 11006KT M01/M10 A3041 RMK A01 T10131102  RH  051%=      5-min Rain = 0
KEN1 130536Z 11006KT M01/M10 A3041 RMK A01 T10141103  RH  051%=      5-min Rain = 0
KEN1 130537Z 12005KT M01/M10 A3041 RMK A01 T10141103  RH  051%=      5-min Rain = 0
KEN1 130538Z 13005KT M01/M10 A3041 RMK A01 T10141102  RH  051%=      5-min Rain = 0
KEN1 130539Z 13004KT M02/M10 A3041 RMK A01 T10151102  RH  051%=      5-min Rain = 0
KEN1 130540Z 13004KT M02/M10 A3041 RMK A01 T10161102  RH  052%=      5-min Rain = 0
KEN1 130541Z 14004KT M02/M10 A3041 RMK A01 T10161102  RH  052%=      5-min Rain = 0
KEN1 130542Z 14005KT M02/M10 A3041 RMK A01 T10161102  RH  052%=      5-min Rain = 0
KEN1 130543Z 14004KT M02/M10 A3041 RMK A01 T10151102  RH  052%=      5-min Rain = 0
KEN1 130544Z 14004KT M02/M10 A3041 RMK A01 T10161101  RH  052%=      5-min Rain = 0
KEN1 130545Z 14003KT M02/M10 A3041 RMK A01 T10191102  RH  053%=      5-min Rain = 0
KEN1 130546Z 14003KT M02/M10 A3041 RMK A01 T10211101  RH  054%=      5-min Rain = 0
KEN1 130547Z 14003KT M02/M10 A3041 RMK A01 T10221101  RH  055%=      5-min Rain = 0
KEN1 130548Z 14003KT M02/M10 A3041 RMK A01 T10231100  RH  055%=      5-min Rain = 0
KEN1 130549Z 16003KT M02/M10 A3041 RMK A01 T10231100  RH  056%=      5-min Rain = 0
KEN1 130550Z 17003KT M03/M10 A3041 RMK A01 T10251100  RH  056%=      5-min Rain = 0
KEN1 130551Z 17003KT M03/M10 A3041 RMK A01 T10271100  RH  057%=      5-min Rain = 0
KEN1 130552Z 18003KT M03/M10 A3041 RMK A01 T10281099  RH  058%=      5-min Rain = 0
KEN1 130553Z 18003KT M03/M10 A3041 RMK A01 T10271099  RH  058%=      5-min Rain = 0
KEN1 130554Z 17004KT M03/M10 A3041 RMK A01 T10271099  RH  057%=      5-min Rain = 0
KEN1 130555Z 18004KT M03/M10 A3041 RMK A01 T10271099  RH  057%=      5-min Rain = 0
KEN1 130556Z 18004KT M03/M10 A3041 RMK A01 T10261099  RH  057%=      5-min Rain = 0
KEN1 130557Z 18004KT M03/M10 A3042 RMK A01 T10261099  RH  057%=      5-min Rain = 0
KEN1 130558Z 18005KT M03/M10 A3042 RMK A01 T10261099  RH  057%=      5-min Rain = 0
KEN1 130559Z 18005KT M03/M10 A3042 RMK A01 T10261099  RH  057%=      5-min Rain = 0

Page generated in 0.0816 seconds.